<?xml version="1.0" encoding="UTF-8" standalone="no" ?>
<gpx xmlns="http://www.topografix.com/GPX/1/1" xmlns:xsi="http://www.w3.org/2001/XMLSchema-instance" xsi:schemaLocation="http://www.topografix.com/GPX/1/1 http://www.topografix.com/GPX/1/1/gpx.xsd" version="1.1" creator="VisuGPX - https://www.visugpx.com">
  <metadata>
    <name>De la ferme des Bessoles à Conques</name>
    <desc><![CDATA[4eme jour de la ferme des Bessoles à Conques.
Problème : La batterie du portable s\'est déchargée avant Conques.
Il manque 3km.]]></desc>
  </metadata>
  <trk>
    <name><![CDATA[Bessoles vers Conques]]></name>
    <cmt><![CDATA[4eme jour de randonnée.
De la ferme des Bessoles à Conques.
Problème : Batterie du portable déchargée avant Conques.]]></cmt>
    <trkseg>
      <trkpt lat="44.59735" lon="2.54057">
        <ele>629</ele>
        <time>2014-05-31T06:27:23Z</time>
      </trkpt>
      <trkpt lat="44.59735" lon="2.54057">
        <ele>691.1</ele>
        <time>2014-05-31T06:30:14Z</time>
      </trkpt>
      <trkpt lat="44.59743" lon="2.54041">
        <ele>690.9</ele>
        <time>2014-05-31T06:30:29Z</time>
      </trkpt>
      <trkpt lat="44.5975" lon="2.5403">
        <ele>691.9</ele>
        <time>2014-05-31T06:30:40Z</time>
      </trkpt>
      <trkpt lat="44.59761" lon="2.54015">
        <ele>693.3</ele>
        <time>2014-05-31T06:30:53Z</time>
      </trkpt>
      <trkpt lat="44.59772" lon="2.53996">
        <ele>694.8</ele>
        <time>2014-05-31T06:31:09Z</time>
      </trkpt>
      <trkpt lat="44.59781" lon="2.53981">
        <ele>697.2</ele>
        <time>2014-05-31T06:31:23Z</time>
      </trkpt>
      <trkpt lat="44.59796" lon="2.5396">
        <ele>695.9</ele>
        <time>2014-05-31T06:31:40Z</time>
      </trkpt>
      <trkpt lat="44.59802" lon="2.53951">
        <ele>697.8</ele>
        <time>2014-05-31T06:31:47Z</time>
      </trkpt>
      <trkpt lat="44.59819" lon="2.53932">
        <ele>699</ele>
        <time>2014-05-31T06:32:02Z</time>
      </trkpt>
      <trkpt lat="44.59826" lon="2.53923">
        <ele>699.5</ele>
        <time>2014-05-31T06:32:09Z</time>
      </trkpt>
      <trkpt lat="44.59863" lon="2.53874">
        <ele>700.6</ele>
        <time>2014-05-31T06:32:51Z</time>
      </trkpt>
      <trkpt lat="44.59875" lon="2.53856">
        <ele>700.6</ele>
        <time>2014-05-31T06:33:11Z</time>
      </trkpt>
      <trkpt lat="44.59886" lon="2.53835">
        <ele>700.6</ele>
        <time>2014-05-31T06:33:31Z</time>
      </trkpt>
      <trkpt lat="44.59894" lon="2.53822">
        <ele>700.1</ele>
        <time>2014-05-31T06:33:46Z</time>
      </trkpt>
      <trkpt lat="44.59904" lon="2.53804">
        <ele>700.5</ele>
        <time>2014-05-31T06:34:03Z</time>
      </trkpt>
      <trkpt lat="44.59916" lon="2.53784">
        <ele>700.1</ele>
        <time>2014-05-31T06:34:19Z</time>
      </trkpt>
      <trkpt lat="44.59929" lon="2.53766">
        <ele>699.8</ele>
        <time>2014-05-31T06:34:32Z</time>
      </trkpt>
      <trkpt lat="44.59935" lon="2.53756">
        <ele>699.4</ele>
        <time>2014-05-31T06:34:42Z</time>
      </trkpt>
      <trkpt lat="44.59939" lon="2.53751">
        <ele>698.6</ele>
        <time>2014-05-31T06:34:54Z</time>
      </trkpt>
      <trkpt lat="44.59951" lon="2.53736">
        <ele>698.8</ele>
        <time>2014-05-31T06:35:06Z</time>
      </trkpt>
      <trkpt lat="44.5996" lon="2.53724">
        <ele>699.1</ele>
        <time>2014-05-31T06:35:15Z</time>
      </trkpt>
      <trkpt lat="44.59967" lon="2.53712">
        <ele>698.5</ele>
        <time>2014-05-31T06:35:25Z</time>
      </trkpt>
      <trkpt lat="44.59981" lon="2.53694">
        <ele>698.6</ele>
        <time>2014-05-31T06:35:40Z</time>
      </trkpt>
      <trkpt lat="44.59989" lon="2.53685">
        <ele>696.4</ele>
        <time>2014-05-31T06:35:48Z</time>
      </trkpt>
      <trkpt lat="44.60003" lon="2.53669">
        <ele>697.3</ele>
        <time>2014-05-31T06:35:59Z</time>
      </trkpt>
      <trkpt lat="44.60017" lon="2.53651">
        <ele>695.6</ele>
        <time>2014-05-31T06:36:11Z</time>
      </trkpt>
      <trkpt lat="44.60031" lon="2.53626">
        <ele>694.7</ele>
        <time>2014-05-31T06:36:24Z</time>
      </trkpt>
      <trkpt lat="44.60028" lon="2.53609">
        <ele>695.9</ele>
        <time>2014-05-31T06:36:32Z</time>
      </trkpt>
      <trkpt lat="44.60017" lon="2.53596">
        <ele>695.3</ele>
        <time>2014-05-31T06:36:43Z</time>
      </trkpt>
      <trkpt lat="44.60003" lon="2.53568">
        <ele>693.5</ele>
        <time>2014-05-31T06:36:59Z</time>
      </trkpt>
      <trkpt lat="44.60002" lon="2.53548">
        <ele>694.4</ele>
        <time>2014-05-31T06:37:13Z</time>
      </trkpt>
      <trkpt lat="44.60012" lon="2.53526">
        <ele>695</ele>
        <time>2014-05-31T06:37:29Z</time>
      </trkpt>
      <trkpt lat="44.60024" lon="2.53504">
        <ele>690.7</ele>
        <time>2014-05-31T06:37:46Z</time>
      </trkpt>
      <trkpt lat="44.60032" lon="2.5348">
        <ele>688.5</ele>
        <time>2014-05-31T06:38:02Z</time>
      </trkpt>
      <trkpt lat="44.60036" lon="2.53459">
        <ele>686.2</ele>
        <time>2014-05-31T06:38:16Z</time>
      </trkpt>
      <trkpt lat="44.6004" lon="2.5343">
        <ele>687.7</ele>
        <time>2014-05-31T06:38:32Z</time>
      </trkpt>
      <trkpt lat="44.60044" lon="2.53408">
        <ele>685</ele>
        <time>2014-05-31T06:38:48Z</time>
      </trkpt>
      <trkpt lat="44.60048" lon="2.53381">
        <ele>678.9</ele>
        <time>2014-05-31T06:39:06Z</time>
      </trkpt>
      <trkpt lat="44.60049" lon="2.53359">
        <ele>681.2</ele>
        <time>2014-05-31T06:39:18Z</time>
      </trkpt>
      <trkpt lat="44.6005" lon="2.53333">
        <ele>680.4</ele>
        <time>2014-05-31T06:39:33Z</time>
      </trkpt>
      <trkpt lat="44.60052" lon="2.5331">
        <ele>677.1</ele>
        <time>2014-05-31T06:39:49Z</time>
      </trkpt>
      <trkpt lat="44.60049" lon="2.53285">
        <ele>676.2</ele>
        <time>2014-05-31T06:40:05Z</time>
      </trkpt>
      <trkpt lat="44.6003" lon="2.53304">
        <ele>669.4</ele>
        <time>2014-05-31T06:40:20Z</time>
      </trkpt>
      <trkpt lat="44.60018" lon="2.53322">
        <ele>665.8</ele>
        <time>2014-05-31T06:40:34Z</time>
      </trkpt>
      <trkpt lat="44.60006" lon="2.53342">
        <ele>662.9</ele>
        <time>2014-05-31T06:40:49Z</time>
      </trkpt>
      <trkpt lat="44.59995" lon="2.53356">
        <ele>660.1</ele>
        <time>2014-05-31T06:41:01Z</time>
      </trkpt>
      <trkpt lat="44.59982" lon="2.53372">
        <ele>658.9</ele>
        <time>2014-05-31T06:41:14Z</time>
      </trkpt>
      <trkpt lat="44.59973" lon="2.53382">
        <ele>656.5</ele>
        <time>2014-05-31T06:41:26Z</time>
      </trkpt>
      <trkpt lat="44.59953" lon="2.53393">
        <ele>653.4</ele>
        <time>2014-05-31T06:41:44Z</time>
      </trkpt>
      <trkpt lat="44.59942" lon="2.53385">
        <ele>651.7</ele>
        <time>2014-05-31T06:41:58Z</time>
      </trkpt>
      <trkpt lat="44.59949" lon="2.53361">
        <ele>651.4</ele>
        <time>2014-05-31T06:42:13Z</time>
      </trkpt>
      <trkpt lat="44.59962" lon="2.53341">
        <ele>648.5</ele>
        <time>2014-05-31T06:42:30Z</time>
      </trkpt>
      <trkpt lat="44.59972" lon="2.53317">
        <ele>652.6</ele>
        <time>2014-05-31T06:42:45Z</time>
      </trkpt>
      <trkpt lat="44.59974" lon="2.53308">
        <ele>652.5</ele>
        <time>2014-05-31T06:42:55Z</time>
      </trkpt>
      <trkpt lat="44.59976" lon="2.53293">
        <ele>653.5</ele>
        <time>2014-05-31T06:43:03Z</time>
      </trkpt>
      <trkpt lat="44.59979" lon="2.53278">
        <ele>651</ele>
        <time>2014-05-31T06:43:13Z</time>
      </trkpt>
      <trkpt lat="44.59979" lon="2.53255">
        <ele>652.3</ele>
        <time>2014-05-31T06:43:25Z</time>
      </trkpt>
      <trkpt lat="44.59979" lon="2.53255">
        <ele>652.3</ele>
        <time>2014-05-31T06:43:30Z</time>
      </trkpt>
      <trkpt lat="44.59981" lon="2.53243">
        <ele>647.9</ele>
        <time>2014-05-31T06:43:35Z</time>
      </trkpt>
      <trkpt lat="44.59983" lon="2.53223">
        <ele>645.5</ele>
        <time>2014-05-31T06:43:48Z</time>
      </trkpt>
      <trkpt lat="44.59987" lon="2.53209">
        <ele>641.8</ele>
        <time>2014-05-31T06:43:58Z</time>
      </trkpt>
      <trkpt lat="44.5999" lon="2.53185">
        <ele>642.8</ele>
        <time>2014-05-31T06:44:12Z</time>
      </trkpt>
      <trkpt lat="44.59994" lon="2.53157">
        <ele>635.3</ele>
        <time>2014-05-31T06:44:32Z</time>
      </trkpt>
      <trkpt lat="44.59994" lon="2.53126">
        <ele>637.8</ele>
        <time>2014-05-31T06:44:49Z</time>
      </trkpt>
      <trkpt lat="44.59997" lon="2.53117">
        <ele>631.8</ele>
        <time>2014-05-31T06:44:59Z</time>
      </trkpt>
      <trkpt lat="44.6" lon="2.53094">
        <ele>631.5</ele>
        <time>2014-05-31T06:45:15Z</time>
      </trkpt>
      <trkpt lat="44.60005" lon="2.53079">
        <ele>629.6</ele>
        <time>2014-05-31T06:45:27Z</time>
      </trkpt>
      <trkpt lat="44.59998" lon="2.53078">
        <ele>627.5</ele>
        <time>2014-05-31T06:45:35Z</time>
      </trkpt>
      <trkpt lat="44.60009" lon="2.53053">
        <ele>622.8</ele>
        <time>2014-05-31T06:46:28Z</time>
      </trkpt>
      <trkpt lat="44.60015" lon="2.53042">
        <ele>622.8</ele>
        <time>2014-05-31T06:46:34Z</time>
      </trkpt>
      <trkpt lat="44.60021" lon="2.53021">
        <ele>624.7</ele>
        <time>2014-05-31T06:46:46Z</time>
      </trkpt>
      <trkpt lat="44.60038" lon="2.52993">
        <ele>623.9</ele>
        <time>2014-05-31T06:47:03Z</time>
      </trkpt>
      <trkpt lat="44.60047" lon="2.52985">
        <ele>621.7</ele>
        <time>2014-05-31T06:47:11Z</time>
      </trkpt>
      <trkpt lat="44.60057" lon="2.52969">
        <ele>621.1</ele>
        <time>2014-05-31T06:47:22Z</time>
      </trkpt>
      <trkpt lat="44.60071" lon="2.52947">
        <ele>624.1</ele>
        <time>2014-05-31T06:47:37Z</time>
      </trkpt>
      <trkpt lat="44.60084" lon="2.52931">
        <ele>622.3</ele>
        <time>2014-05-31T06:47:48Z</time>
      </trkpt>
      <trkpt lat="44.60101" lon="2.52921">
        <ele>614.1</ele>
        <time>2014-05-31T06:48:03Z</time>
      </trkpt>
      <trkpt lat="44.60116" lon="2.52905">
        <ele>613.1</ele>
        <time>2014-05-31T06:48:15Z</time>
      </trkpt>
      <trkpt lat="44.60125" lon="2.5289">
        <ele>613.9</ele>
        <time>2014-05-31T06:48:26Z</time>
      </trkpt>
      <trkpt lat="44.60137" lon="2.52881">
        <ele>612.1</ele>
        <time>2014-05-31T06:48:35Z</time>
      </trkpt>
      <trkpt lat="44.60145" lon="2.52871">
        <ele>610.8</ele>
        <time>2014-05-31T06:48:47Z</time>
      </trkpt>
      <trkpt lat="44.60156" lon="2.52862">
        <ele>608</ele>
        <time>2014-05-31T06:48:59Z</time>
      </trkpt>
      <trkpt lat="44.60169" lon="2.52856">
        <ele>602.7</ele>
        <time>2014-05-31T06:49:09Z</time>
      </trkpt>
      <trkpt lat="44.60182" lon="2.52849">
        <ele>605.6</ele>
        <time>2014-05-31T06:49:19Z</time>
      </trkpt>
      <trkpt lat="44.60202" lon="2.52845">
        <ele>600.1</ele>
        <time>2014-05-31T06:49:33Z</time>
      </trkpt>
      <trkpt lat="44.60216" lon="2.52838">
        <ele>600.9</ele>
        <time>2014-05-31T06:49:43Z</time>
      </trkpt>
      <trkpt lat="44.60221" lon="2.52832">
        <ele>597.5</ele>
        <time>2014-05-31T06:49:49Z</time>
      </trkpt>
      <trkpt lat="44.60218" lon="2.52826">
        <ele>592.4</ele>
        <time>2014-05-31T06:49:55Z</time>
      </trkpt>
      <trkpt lat="44.6019" lon="2.52821">
        <ele>574.1</ele>
        <time>2014-05-31T06:50:23Z</time>
      </trkpt>
      <trkpt lat="44.60172" lon="2.52813">
        <ele>577.5</ele>
        <time>2014-05-31T06:50:35Z</time>
      </trkpt>
      <trkpt lat="44.60172" lon="2.52813">
        <ele>577.5</ele>
        <time>2014-05-31T06:50:43Z</time>
      </trkpt>
      <trkpt lat="44.60172" lon="2.52813">
        <ele>577.5</ele>
        <time>2014-05-31T06:50:44Z</time>
      </trkpt>
      <trkpt lat="44.6016" lon="2.52806">
        <ele>577.7</ele>
        <time>2014-05-31T06:50:52Z</time>
      </trkpt>
      <trkpt lat="44.60137" lon="2.52801">
        <ele>572.8</ele>
        <time>2014-05-31T06:51:11Z</time>
      </trkpt>
      <trkpt lat="44.60109" lon="2.52805">
        <ele>571.8</ele>
        <time>2014-05-31T06:51:29Z</time>
      </trkpt>
      <trkpt lat="44.60088" lon="2.52815">
        <ele>569.6</ele>
        <time>2014-05-31T06:51:43Z</time>
      </trkpt>
      <trkpt lat="44.60088" lon="2.52815">
        <ele>569.6</ele>
        <time>2014-05-31T06:51:49Z</time>
      </trkpt>
      <trkpt lat="44.6008" lon="2.52825">
        <ele>564</ele>
        <time>2014-05-31T06:51:53Z</time>
      </trkpt>
      <trkpt lat="44.60063" lon="2.52833">
        <ele>565</ele>
        <time>2014-05-31T06:52:04Z</time>
      </trkpt>
      <trkpt lat="44.60044" lon="2.52845">
        <ele>565.9</ele>
        <time>2014-05-31T06:52:18Z</time>
      </trkpt>
      <trkpt lat="44.6003" lon="2.52848">
        <ele>566.2</ele>
        <time>2014-05-31T06:52:28Z</time>
      </trkpt>
      <trkpt lat="44.60015" lon="2.52839">
        <ele>564.5</ele>
        <time>2014-05-31T06:52:39Z</time>
      </trkpt>
      <trkpt lat="44.60002" lon="2.52828">
        <ele>566</ele>
        <time>2014-05-31T06:52:51Z</time>
      </trkpt>
      <trkpt lat="44.59985" lon="2.52818">
        <ele>564.6</ele>
        <time>2014-05-31T06:53:06Z</time>
      </trkpt>
      <trkpt lat="44.59975" lon="2.52806">
        <ele>565.1</ele>
        <time>2014-05-31T06:53:14Z</time>
      </trkpt>
      <trkpt lat="44.59981" lon="2.52793">
        <ele>564.2</ele>
        <time>2014-05-31T06:53:24Z</time>
      </trkpt>
      <trkpt lat="44.59989" lon="2.52786">
        <ele>564.7</ele>
        <time>2014-05-31T06:53:35Z</time>
      </trkpt>
      <trkpt lat="44.60003" lon="2.52778">
        <ele>560.4</ele>
        <time>2014-05-31T06:53:48Z</time>
      </trkpt>
      <trkpt lat="44.60024" lon="2.52776">
        <ele>558</ele>
        <time>2014-05-31T06:54:04Z</time>
      </trkpt>
      <trkpt lat="44.60036" lon="2.52767">
        <ele>559.5</ele>
        <time>2014-05-31T06:54:15Z</time>
      </trkpt>
      <trkpt lat="44.60044" lon="2.52756">
        <ele>551.1</ele>
        <time>2014-05-31T06:54:26Z</time>
      </trkpt>
      <trkpt lat="44.6006" lon="2.52737">
        <ele>552</ele>
        <time>2014-05-31T06:54:40Z</time>
      </trkpt>
      <trkpt lat="44.60073" lon="2.52714">
        <ele>553.1</ele>
        <time>2014-05-31T06:54:56Z</time>
      </trkpt>
      <trkpt lat="44.60085" lon="2.52695">
        <ele>553.8</ele>
        <time>2014-05-31T06:55:11Z</time>
      </trkpt>
      <trkpt lat="44.60099" lon="2.52678">
        <ele>552.9</ele>
        <time>2014-05-31T06:55:26Z</time>
      </trkpt>
      <trkpt lat="44.60119" lon="2.52668">
        <ele>548.5</ele>
        <time>2014-05-31T06:55:44Z</time>
      </trkpt>
      <trkpt lat="44.6014" lon="2.52675">
        <ele>547.2</ele>
        <time>2014-05-31T06:56:01Z</time>
      </trkpt>
      <trkpt lat="44.60156" lon="2.5267">
        <ele>542.5</ele>
        <time>2014-05-31T06:56:15Z</time>
      </trkpt>
      <trkpt lat="44.60168" lon="2.52653">
        <ele>538.5</ele>
        <time>2014-05-31T06:56:29Z</time>
      </trkpt>
      <trkpt lat="44.60179" lon="2.52632">
        <ele>541.4</ele>
        <time>2014-05-31T06:56:44Z</time>
      </trkpt>
      <trkpt lat="44.60195" lon="2.52597">
        <ele>541.9</ele>
        <time>2014-05-31T06:57:05Z</time>
      </trkpt>
      <trkpt lat="44.60205" lon="2.52573">
        <ele>542.7</ele>
        <time>2014-05-31T06:57:21Z</time>
      </trkpt>
      <trkpt lat="44.60222" lon="2.52552">
        <ele>536.8</ele>
        <time>2014-05-31T06:57:39Z</time>
      </trkpt>
      <trkpt lat="44.60226" lon="2.52549">
        <ele>535.9</ele>
        <time>2014-05-31T06:57:43Z</time>
      </trkpt>
      <trkpt lat="44.60232" lon="2.52542">
        <ele>538.2</ele>
        <time>2014-05-31T06:57:55Z</time>
      </trkpt>
      <trkpt lat="44.60251" lon="2.52524">
        <ele>539.7</ele>
        <time>2014-05-31T06:58:12Z</time>
      </trkpt>
      <trkpt lat="44.60261" lon="2.5252">
        <ele>537.8</ele>
        <time>2014-05-31T06:58:19Z</time>
      </trkpt>
      <trkpt lat="44.60272" lon="2.52512">
        <ele>537</ele>
        <time>2014-05-31T06:58:32Z</time>
      </trkpt>
      <trkpt lat="44.60282" lon="2.52506">
        <ele>539.7</ele>
        <time>2014-05-31T06:58:41Z</time>
      </trkpt>
      <trkpt lat="44.60288" lon="2.525">
        <ele>542.7</ele>
        <time>2014-05-31T06:58:48Z</time>
      </trkpt>
      <trkpt lat="44.60312" lon="2.52479">
        <ele>544.7</ele>
        <time>2014-05-31T06:59:07Z</time>
      </trkpt>
      <trkpt lat="44.60319" lon="2.52471">
        <ele>551.9</ele>
        <time>2014-05-31T06:59:14Z</time>
      </trkpt>
      <trkpt lat="44.60335" lon="2.52464">
        <ele>553.1</ele>
        <time>2014-05-31T06:59:29Z</time>
      </trkpt>
      <trkpt lat="44.6035" lon="2.52464">
        <ele>548.9</ele>
        <time>2014-05-31T06:59:43Z</time>
      </trkpt>
      <trkpt lat="44.60357" lon="2.5246">
        <ele>547.9</ele>
        <time>2014-05-31T06:59:58Z</time>
      </trkpt>
      <trkpt lat="44.60386" lon="2.52438">
        <ele>542</ele>
        <time>2014-05-31T07:00:16Z</time>
      </trkpt>
      <trkpt lat="44.60397" lon="2.52428">
        <ele>542.6</ele>
        <time>2014-05-31T07:00:23Z</time>
      </trkpt>
      <trkpt lat="44.60402" lon="2.52406">
        <ele>544.2</ele>
        <time>2014-05-31T07:00:34Z</time>
      </trkpt>
      <trkpt lat="44.60415" lon="2.52388">
        <ele>543.2</ele>
        <time>2014-05-31T07:00:50Z</time>
      </trkpt>
      <trkpt lat="44.60423" lon="2.52382">
        <ele>543.3</ele>
        <time>2014-05-31T07:00:59Z</time>
      </trkpt>
      <trkpt lat="44.60429" lon="2.52353">
        <ele>541.3</ele>
        <time>2014-05-31T07:01:17Z</time>
      </trkpt>
      <trkpt lat="44.60419" lon="2.52325">
        <ele>541.1</ele>
        <time>2014-05-31T07:01:36Z</time>
      </trkpt>
      <trkpt lat="44.60404" lon="2.52296">
        <ele>543.6</ele>
        <time>2014-05-31T07:01:53Z</time>
      </trkpt>
      <trkpt lat="44.604" lon="2.52278">
        <ele>540</ele>
        <time>2014-05-31T07:02:05Z</time>
      </trkpt>
      <trkpt lat="44.60386" lon="2.52257">
        <ele>540.6</ele>
        <time>2014-05-31T07:02:22Z</time>
      </trkpt>
      <trkpt lat="44.60375" lon="2.52242">
        <ele>536.7</ele>
        <time>2014-05-31T07:02:37Z</time>
      </trkpt>
      <trkpt lat="44.60375" lon="2.52217">
        <ele>529.9</ele>
        <time>2014-05-31T07:02:52Z</time>
      </trkpt>
      <trkpt lat="44.60372" lon="2.52201">
        <ele>529.6</ele>
        <time>2014-05-31T07:03:01Z</time>
      </trkpt>
      <trkpt lat="44.60363" lon="2.52185">
        <ele>533.7</ele>
        <time>2014-05-31T07:03:11Z</time>
      </trkpt>
      <trkpt lat="44.60346" lon="2.52163">
        <ele>536</ele>
        <time>2014-05-31T07:03:27Z</time>
      </trkpt>
      <trkpt lat="44.60342" lon="2.52144">
        <ele>533.8</ele>
        <time>2014-05-31T07:03:42Z</time>
      </trkpt>
      <trkpt lat="44.60351" lon="2.52117">
        <ele>536.8</ele>
        <time>2014-05-31T07:03:59Z</time>
      </trkpt>
      <trkpt lat="44.60369" lon="2.52097">
        <ele>540</ele>
        <time>2014-05-31T07:04:17Z</time>
      </trkpt>
      <trkpt lat="44.60388" lon="2.52084">
        <ele>538.5</ele>
        <time>2014-05-31T07:04:34Z</time>
      </trkpt>
      <trkpt lat="44.60405" lon="2.52067">
        <ele>534.2</ele>
        <time>2014-05-31T07:04:54Z</time>
      </trkpt>
      <trkpt lat="44.60424" lon="2.52049">
        <ele>531.6</ele>
        <time>2014-05-31T07:05:11Z</time>
      </trkpt>
      <trkpt lat="44.60438" lon="2.52033">
        <ele>528.2</ele>
        <time>2014-05-31T07:05:25Z</time>
      </trkpt>
      <trkpt lat="44.60452" lon="2.52022">
        <ele>524.9</ele>
        <time>2014-05-31T07:05:39Z</time>
      </trkpt>
      <trkpt lat="44.60461" lon="2.52012">
        <ele>525</ele>
        <time>2014-05-31T07:05:46Z</time>
      </trkpt>
      <trkpt lat="44.60468" lon="2.52002">
        <ele>524.8</ele>
        <time>2014-05-31T07:05:54Z</time>
      </trkpt>
      <trkpt lat="44.60485" lon="2.51993">
        <ele>516</ele>
        <time>2014-05-31T07:06:06Z</time>
      </trkpt>
      <trkpt lat="44.60502" lon="2.51985">
        <ele>515.5</ele>
        <time>2014-05-31T07:06:15Z</time>
      </trkpt>
      <trkpt lat="44.60503" lon="2.51969">
        <ele>517.5</ele>
        <time>2014-05-31T07:06:22Z</time>
      </trkpt>
      <trkpt lat="44.60504" lon="2.51956">
        <ele>516.9</ele>
        <time>2014-05-31T07:06:32Z</time>
      </trkpt>
      <trkpt lat="44.60511" lon="2.51949">
        <ele>522.1</ele>
        <time>2014-05-31T07:06:47Z</time>
      </trkpt>
      <trkpt lat="44.60527" lon="2.51949">
        <ele>528.9</ele>
        <time>2014-05-31T07:07:01Z</time>
      </trkpt>
      <trkpt lat="44.60543" lon="2.51938">
        <ele>524.7</ele>
        <time>2014-05-31T07:07:18Z</time>
      </trkpt>
      <trkpt lat="44.60555" lon="2.51922">
        <ele>524.3</ele>
        <time>2014-05-31T07:07:29Z</time>
      </trkpt>
      <trkpt lat="44.60567" lon="2.5191">
        <ele>526.7</ele>
        <time>2014-05-31T07:07:39Z</time>
      </trkpt>
      <trkpt lat="44.60576" lon="2.51899">
        <ele>529.4</ele>
        <time>2014-05-31T07:07:45Z</time>
      </trkpt>
      <trkpt lat="44.60584" lon="2.51892">
        <ele>518.1</ele>
        <time>2014-05-31T07:07:58Z</time>
      </trkpt>
      <trkpt lat="44.60584" lon="2.51892">
        <ele>518.1</ele>
        <time>2014-05-31T07:08:05Z</time>
      </trkpt>
      <trkpt lat="44.60597" lon="2.51875">
        <ele>515.6</ele>
        <time>2014-05-31T07:08:16Z</time>
      </trkpt>
      <trkpt lat="44.60588" lon="2.51856">
        <ele>508.1</ele>
        <time>2014-05-31T07:08:31Z</time>
      </trkpt>
      <trkpt lat="44.60585" lon="2.51845">
        <ele>501.8</ele>
        <time>2014-05-31T07:08:41Z</time>
      </trkpt>
      <trkpt lat="44.60585" lon="2.51845">
        <ele>501.8</ele>
        <time>2014-05-31T07:08:49Z</time>
      </trkpt>
      <trkpt lat="44.60585" lon="2.51845">
        <ele>501.8</ele>
        <time>2014-05-31T07:08:50Z</time>
      </trkpt>
      <trkpt lat="44.60562" lon="2.51837">
        <ele>514.4</ele>
        <time>2014-05-31T07:09:36Z</time>
      </trkpt>
      <trkpt lat="44.60549" lon="2.51828">
        <ele>509.4</ele>
        <time>2014-05-31T07:09:47Z</time>
      </trkpt>
      <trkpt lat="44.60545" lon="2.51802">
        <ele>504.8</ele>
        <time>2014-05-31T07:10:04Z</time>
      </trkpt>
      <trkpt lat="44.60555" lon="2.51776">
        <ele>503.7</ele>
        <time>2014-05-31T07:10:22Z</time>
      </trkpt>
      <trkpt lat="44.60568" lon="2.51765">
        <ele>504.2</ele>
        <time>2014-05-31T07:10:33Z</time>
      </trkpt>
      <trkpt lat="44.60583" lon="2.51749">
        <ele>506.8</ele>
        <time>2014-05-31T07:10:45Z</time>
      </trkpt>
      <trkpt lat="44.60596" lon="2.51737">
        <ele>507</ele>
        <time>2014-05-31T07:10:57Z</time>
      </trkpt>
      <trkpt lat="44.60605" lon="2.51723">
        <ele>502.7</ele>
        <time>2014-05-31T07:11:09Z</time>
      </trkpt>
      <trkpt lat="44.60618" lon="2.51707">
        <ele>499</ele>
        <time>2014-05-31T07:11:23Z</time>
      </trkpt>
      <trkpt lat="44.6063" lon="2.51679">
        <ele>499.3</ele>
        <time>2014-05-31T07:11:41Z</time>
      </trkpt>
      <trkpt lat="44.60626" lon="2.51651">
        <ele>497.7</ele>
        <time>2014-05-31T07:11:56Z</time>
      </trkpt>
      <trkpt lat="44.60622" lon="2.51635">
        <ele>499</ele>
        <time>2014-05-31T07:12:06Z</time>
      </trkpt>
      <trkpt lat="44.60639" lon="2.5163">
        <ele>495.7</ele>
        <time>2014-05-31T07:12:23Z</time>
      </trkpt>
      <trkpt lat="44.60639" lon="2.5163">
        <ele>495.7</ele>
        <time>2014-05-31T07:12:31Z</time>
      </trkpt>
      <trkpt lat="44.60639" lon="2.5163">
        <ele>495.7</ele>
        <time>2014-05-31T07:12:32Z</time>
      </trkpt>
      <trkpt lat="44.60649" lon="2.51619">
        <ele>495.5</ele>
        <time>2014-05-31T07:12:37Z</time>
      </trkpt>
      <trkpt lat="44.60664" lon="2.51615">
        <ele>498.9</ele>
        <time>2014-05-31T07:12:49Z</time>
      </trkpt>
      <trkpt lat="44.60683" lon="2.51601">
        <ele>508.5</ele>
        <time>2014-05-31T07:13:04Z</time>
      </trkpt>
      <trkpt lat="44.60695" lon="2.51594">
        <ele>510.1</ele>
        <time>2014-05-31T07:13:13Z</time>
      </trkpt>
      <trkpt lat="44.60712" lon="2.51582">
        <ele>505.9</ele>
        <time>2014-05-31T07:13:28Z</time>
      </trkpt>
      <trkpt lat="44.60712" lon="2.51582">
        <ele>505.9</ele>
        <time>2014-05-31T07:13:36Z</time>
      </trkpt>
      <trkpt lat="44.60712" lon="2.51582">
        <ele>505.9</ele>
        <time>2014-05-31T07:13:37Z</time>
      </trkpt>
      <trkpt lat="44.60726" lon="2.51574">
        <ele>503.7</ele>
        <time>2014-05-31T07:13:49Z</time>
      </trkpt>
      <trkpt lat="44.60743" lon="2.51571">
        <ele>500.2</ele>
        <time>2014-05-31T07:13:59Z</time>
      </trkpt>
      <trkpt lat="44.60762" lon="2.5157">
        <ele>500.6</ele>
        <time>2014-05-31T07:14:13Z</time>
      </trkpt>
      <trkpt lat="44.60771" lon="2.51574">
        <ele>503.6</ele>
        <time>2014-05-31T07:14:22Z</time>
      </trkpt>
      <trkpt lat="44.60787" lon="2.51591">
        <ele>502</ele>
        <time>2014-05-31T07:14:38Z</time>
      </trkpt>
      <trkpt lat="44.60793" lon="2.51601">
        <ele>502</ele>
        <time>2014-05-31T07:14:48Z</time>
      </trkpt>
      <trkpt lat="44.60793" lon="2.51601">
        <ele>502</ele>
        <time>2014-05-31T07:17:41Z</time>
      </trkpt>
      <trkpt lat="44.60811" lon="2.51619">
        <ele>497.1</ele>
        <time>2014-05-31T07:17:48Z</time>
      </trkpt>
      <trkpt lat="44.60824" lon="2.51625">
        <ele>497</ele>
        <time>2014-05-31T07:17:59Z</time>
      </trkpt>
      <trkpt lat="44.60835" lon="2.51628">
        <ele>495.8</ele>
        <time>2014-05-31T07:18:10Z</time>
      </trkpt>
      <trkpt lat="44.60835" lon="2.51628">
        <ele>495.8</ele>
        <time>2014-05-31T07:18:18Z</time>
      </trkpt>
      <trkpt lat="44.60853" lon="2.5163">
        <ele>500.3</ele>
        <time>2014-05-31T07:18:29Z</time>
      </trkpt>
      <trkpt lat="44.60872" lon="2.51636">
        <ele>499.1</ele>
        <time>2014-05-31T07:18:44Z</time>
      </trkpt>
      <trkpt lat="44.60895" lon="2.51652">
        <ele>501</ele>
        <time>2014-05-31T07:19:01Z</time>
      </trkpt>
      <trkpt lat="44.60908" lon="2.51651">
        <ele>505.3</ele>
        <time>2014-05-31T07:19:16Z</time>
      </trkpt>
      <trkpt lat="44.60919" lon="2.51641">
        <ele>504.8</ele>
        <time>2014-05-31T07:19:22Z</time>
      </trkpt>
      <trkpt lat="44.60919" lon="2.51641">
        <ele>504.8</ele>
        <time>2014-05-31T07:19:27Z</time>
      </trkpt>
      <trkpt lat="44.60917" lon="2.51625">
        <ele>498.3</ele>
        <time>2014-05-31T07:19:31Z</time>
      </trkpt>
      <trkpt lat="44.60921" lon="2.51613">
        <ele>497.8</ele>
        <time>2014-05-31T07:19:38Z</time>
      </trkpt>
      <trkpt lat="44.60923" lon="2.51589">
        <ele>497.4</ele>
        <time>2014-05-31T07:19:52Z</time>
      </trkpt>
      <trkpt lat="44.60929" lon="2.51573">
        <ele>496</ele>
        <time>2014-05-31T07:20:05Z</time>
      </trkpt>
      <trkpt lat="44.6095" lon="2.51569">
        <ele>495.1</ele>
        <time>2014-05-31T07:20:24Z</time>
      </trkpt>
      <trkpt lat="44.60964" lon="2.51567">
        <ele>499.5</ele>
        <time>2014-05-31T07:20:37Z</time>
      </trkpt>
      <trkpt lat="44.6098" lon="2.5155">
        <ele>497.4</ele>
        <time>2014-05-31T07:20:51Z</time>
      </trkpt>
      <trkpt lat="44.60995" lon="2.51543">
        <ele>494.1</ele>
        <time>2014-05-31T07:21:10Z</time>
      </trkpt>
      <trkpt lat="44.61005" lon="2.51537">
        <ele>491.8</ele>
        <time>2014-05-31T07:21:18Z</time>
      </trkpt>
      <trkpt lat="44.61021" lon="2.51528">
        <ele>493.3</ele>
        <time>2014-05-31T07:21:30Z</time>
      </trkpt>
      <trkpt lat="44.61031" lon="2.51525">
        <ele>493.5</ele>
        <time>2014-05-31T07:21:37Z</time>
      </trkpt>
      <trkpt lat="44.61033" lon="2.51515">
        <ele>489</ele>
        <time>2014-05-31T07:21:49Z</time>
      </trkpt>
      <trkpt lat="44.61042" lon="2.5149">
        <ele>488.5</ele>
        <time>2014-05-31T07:22:03Z</time>
      </trkpt>
      <trkpt lat="44.61037" lon="2.51476">
        <ele>486.1</ele>
        <time>2014-05-31T07:22:12Z</time>
      </trkpt>
      <trkpt lat="44.61039" lon="2.51458">
        <ele>482.9</ele>
        <time>2014-05-31T07:22:23Z</time>
      </trkpt>
      <trkpt lat="44.61044" lon="2.51431">
        <ele>476.9</ele>
        <time>2014-05-31T07:22:42Z</time>
      </trkpt>
      <trkpt lat="44.61051" lon="2.51407">
        <ele>479</ele>
        <time>2014-05-31T07:23:01Z</time>
      </trkpt>
      <trkpt lat="44.61056" lon="2.51386">
        <ele>475</ele>
        <time>2014-05-31T07:23:17Z</time>
      </trkpt>
      <trkpt lat="44.61066" lon="2.51369">
        <ele>468.8</ele>
        <time>2014-05-31T07:23:30Z</time>
      </trkpt>
      <trkpt lat="44.61068" lon="2.51365">
        <ele>467.5</ele>
        <time>2014-05-31T07:23:34Z</time>
      </trkpt>
      <trkpt lat="44.61078" lon="2.51361">
        <ele>467.4</ele>
        <time>2014-05-31T07:23:47Z</time>
      </trkpt>
      <trkpt lat="44.61094" lon="2.51361">
        <ele>464.7</ele>
        <time>2014-05-31T07:23:59Z</time>
      </trkpt>
      <trkpt lat="44.61111" lon="2.51354">
        <ele>461.1</ele>
        <time>2014-05-31T07:24:16Z</time>
      </trkpt>
      <trkpt lat="44.61121" lon="2.51357">
        <ele>462.1</ele>
        <time>2014-05-31T07:24:25Z</time>
      </trkpt>
      <trkpt lat="44.6113" lon="2.51372">
        <ele>459.3</ele>
        <time>2014-05-31T07:24:39Z</time>
      </trkpt>
      <trkpt lat="44.61137" lon="2.51405">
        <ele>447.8</ele>
        <time>2014-05-31T07:24:58Z</time>
      </trkpt>
      <trkpt lat="44.61136" lon="2.5141">
        <ele>447</ele>
        <time>2014-05-31T07:25:01Z</time>
      </trkpt>
      <trkpt lat="44.6114" lon="2.51421">
        <ele>448.9</ele>
        <time>2014-05-31T07:25:15Z</time>
      </trkpt>
      <trkpt lat="44.61159" lon="2.51436">
        <ele>450</ele>
        <time>2014-05-31T07:25:31Z</time>
      </trkpt>
      <trkpt lat="44.61175" lon="2.51447">
        <ele>454.9</ele>
        <time>2014-05-31T07:25:46Z</time>
      </trkpt>
      <trkpt lat="44.61184" lon="2.5146">
        <ele>451.9</ele>
        <time>2014-05-31T07:26:00Z</time>
      </trkpt>
      <trkpt lat="44.61204" lon="2.51477">
        <ele>450.9</ele>
        <time>2014-05-31T07:26:16Z</time>
      </trkpt>
      <trkpt lat="44.61207" lon="2.51483">
        <ele>452</ele>
        <time>2014-05-31T07:26:26Z</time>
      </trkpt>
      <trkpt lat="44.61214" lon="2.51492">
        <ele>450.3</ele>
        <time>2014-05-31T07:26:30Z</time>
      </trkpt>
      <trkpt lat="44.61212" lon="2.51497">
        <ele>451.1</ele>
        <time>2014-05-31T07:26:37Z</time>
      </trkpt>
      <trkpt lat="44.61214" lon="2.5152">
        <ele>449.9</ele>
        <time>2014-05-31T07:26:55Z</time>
      </trkpt>
      <trkpt lat="44.61215" lon="2.51537">
        <ele>451.1</ele>
        <time>2014-05-31T07:27:02Z</time>
      </trkpt>
      <trkpt lat="44.6122" lon="2.51534">
        <ele>450.8</ele>
        <time>2014-05-31T07:27:08Z</time>
      </trkpt>
      <trkpt lat="44.6123" lon="2.51503">
        <ele>450</ele>
        <time>2014-05-31T07:27:43Z</time>
      </trkpt>
      <trkpt lat="44.61234" lon="2.51486">
        <ele>448.5</ele>
        <time>2014-05-31T07:27:56Z</time>
      </trkpt>
      <trkpt lat="44.61233" lon="2.51469">
        <ele>452.9</ele>
        <time>2014-05-31T07:28:07Z</time>
      </trkpt>
      <trkpt lat="44.61237" lon="2.51444">
        <ele>448.2</ele>
        <time>2014-05-31T07:28:23Z</time>
      </trkpt>
      <trkpt lat="44.61236" lon="2.51418">
        <ele>448.2</ele>
        <time>2014-05-31T07:28:38Z</time>
      </trkpt>
      <trkpt lat="44.61228" lon="2.51401">
        <ele>449.1</ele>
        <time>2014-05-31T07:28:51Z</time>
      </trkpt>
      <trkpt lat="44.61223" lon="2.51384">
        <ele>443.9</ele>
        <time>2014-05-31T07:29:00Z</time>
      </trkpt>
      <trkpt lat="44.61238" lon="2.51367">
        <ele>445.4</ele>
        <time>2014-05-31T07:29:16Z</time>
      </trkpt>
      <trkpt lat="44.61244" lon="2.5136">
        <ele>442.5</ele>
        <time>2014-05-31T07:29:22Z</time>
      </trkpt>
      <trkpt lat="44.61238" lon="2.51367">
        <ele>445.4</ele>
        <time>2014-05-31T07:29:30Z</time>
      </trkpt>
      <trkpt lat="44.61247" lon="2.51348">
        <ele>442.6</ele>
        <time>2014-05-31T07:29:38Z</time>
      </trkpt>
      <trkpt lat="44.61253" lon="2.51329">
        <ele>449.8</ele>
        <time>2014-05-31T07:29:54Z</time>
      </trkpt>
      <trkpt lat="44.61259" lon="2.51317">
        <ele>452.8</ele>
        <time>2014-05-31T07:30:01Z</time>
      </trkpt>
      <trkpt lat="44.61259" lon="2.51307">
        <ele>456.9</ele>
        <time>2014-05-31T07:30:12Z</time>
      </trkpt>
      <trkpt lat="44.61253" lon="2.51275">
        <ele>452.7</ele>
        <time>2014-05-31T07:30:29Z</time>
      </trkpt>
      <trkpt lat="44.61249" lon="2.5125">
        <ele>450.4</ele>
        <time>2014-05-31T07:30:46Z</time>
      </trkpt>
      <trkpt lat="44.61246" lon="2.51236">
        <ele>449.1</ele>
        <time>2014-05-31T07:30:55Z</time>
      </trkpt>
      <trkpt lat="44.61243" lon="2.51213">
        <ele>449.1</ele>
        <time>2014-05-31T07:31:10Z</time>
      </trkpt>
      <trkpt lat="44.61242" lon="2.51199">
        <ele>448.6</ele>
        <time>2014-05-31T07:31:20Z</time>
      </trkpt>
      <trkpt lat="44.61244" lon="2.51172">
        <ele>449.5</ele>
        <time>2014-05-31T07:31:37Z</time>
      </trkpt>
      <trkpt lat="44.61244" lon="2.51172">
        <ele>449.5</ele>
        <time>2014-05-31T07:31:45Z</time>
      </trkpt>
      <trkpt lat="44.61244" lon="2.51169">
        <ele>448.4</ele>
        <time>2014-05-31T07:31:47Z</time>
      </trkpt>
      <trkpt lat="44.61254" lon="2.51139">
        <ele>449.4</ele>
        <time>2014-05-31T07:32:48Z</time>
      </trkpt>
      <trkpt lat="44.61257" lon="2.5113">
        <ele>451.3</ele>
        <time>2014-05-31T07:32:55Z</time>
      </trkpt>
      <trkpt lat="44.61266" lon="2.51106">
        <ele>450.8</ele>
        <time>2014-05-31T07:33:12Z</time>
      </trkpt>
      <trkpt lat="44.61269" lon="2.5109">
        <ele>451.3</ele>
        <time>2014-05-31T07:33:27Z</time>
      </trkpt>
      <trkpt lat="44.61278" lon="2.51062">
        <ele>449.9</ele>
        <time>2014-05-31T07:33:50Z</time>
      </trkpt>
      <trkpt lat="44.61259" lon="2.51034">
        <ele>453.4</ele>
        <time>2014-05-31T07:34:31Z</time>
      </trkpt>
      <trkpt lat="44.61255" lon="2.51013">
        <ele>450.9</ele>
        <time>2014-05-31T07:34:45Z</time>
      </trkpt>
      <trkpt lat="44.61249" lon="2.50993">
        <ele>447</ele>
        <time>2014-05-31T07:35:03Z</time>
      </trkpt>
      <trkpt lat="44.61246" lon="2.50977">
        <ele>444.5</ele>
        <time>2014-05-31T07:35:16Z</time>
      </trkpt>
      <trkpt lat="44.61244" lon="2.50951">
        <ele>443.7</ele>
        <time>2014-05-31T07:35:35Z</time>
      </trkpt>
      <trkpt lat="44.61238" lon="2.50935">
        <ele>444.6</ele>
        <time>2014-05-31T07:35:51Z</time>
      </trkpt>
      <trkpt lat="44.61231" lon="2.50939">
        <ele>444.9</ele>
        <time>2014-05-31T07:35:59Z</time>
      </trkpt>
      <trkpt lat="44.61221" lon="2.50928">
        <ele>447.2</ele>
        <time>2014-05-31T07:43:23Z</time>
      </trkpt>
      <trkpt lat="44.61213" lon="2.50921">
        <ele>445.8</ele>
        <time>2014-05-31T07:43:32Z</time>
      </trkpt>
      <trkpt lat="44.6121" lon="2.50917">
        <ele>443.8</ele>
        <time>2014-05-31T07:43:45Z</time>
      </trkpt>
      <trkpt lat="44.61184" lon="2.50949">
        <ele>445.2</ele>
        <time>2014-05-31T07:45:16Z</time>
      </trkpt>
      <trkpt lat="44.61175" lon="2.50962">
        <ele>444.1</ele>
        <time>2014-05-31T07:45:28Z</time>
      </trkpt>
      <trkpt lat="44.61176" lon="2.50977">
        <ele>448</ele>
        <time>2014-05-31T07:45:37Z</time>
      </trkpt>
      <trkpt lat="44.6118" lon="2.50982">
        <ele>444.2</ele>
        <time>2014-05-31T07:45:45Z</time>
      </trkpt>
      <trkpt lat="44.61189" lon="2.51007">
        <ele>437.6</ele>
        <time>2014-05-31T07:50:10Z</time>
      </trkpt>
      <trkpt lat="44.61189" lon="2.51007">
        <ele>437.6</ele>
        <time>2014-05-31T07:50:18Z</time>
      </trkpt>
      <trkpt lat="44.61189" lon="2.51007">
        <ele>437.6</ele>
        <time>2014-05-31T07:50:19Z</time>
      </trkpt>
      <trkpt lat="44.61178" lon="2.51011">
        <ele>439.9</ele>
        <time>2014-05-31T07:50:33Z</time>
      </trkpt>
      <trkpt lat="44.61169" lon="2.51004">
        <ele>442</ele>
        <time>2014-05-31T07:50:40Z</time>
      </trkpt>
      <trkpt lat="44.61166" lon="2.50992">
        <ele>443</ele>
        <time>2014-05-31T07:50:54Z</time>
      </trkpt>
      <trkpt lat="44.6116" lon="2.50981">
        <ele>443</ele>
        <time>2014-05-31T07:51:04Z</time>
      </trkpt>
      <trkpt lat="44.61156" lon="2.50977">
        <ele>441.2</ele>
        <time>2014-05-31T07:51:12Z</time>
      </trkpt>
      <trkpt lat="44.61149" lon="2.50968">
        <ele>440.2</ele>
        <time>2014-05-31T07:51:23Z</time>
      </trkpt>
      <trkpt lat="44.61137" lon="2.50948">
        <ele>439.6</ele>
        <time>2014-05-31T07:51:38Z</time>
      </trkpt>
      <trkpt lat="44.61123" lon="2.50937">
        <ele>435.6</ele>
        <time>2014-05-31T07:51:55Z</time>
      </trkpt>
      <trkpt lat="44.61113" lon="2.50928">
        <ele>433.6</ele>
        <time>2014-05-31T07:52:07Z</time>
      </trkpt>
      <trkpt lat="44.61097" lon="2.50915">
        <ele>434.2</ele>
        <time>2014-05-31T07:52:25Z</time>
      </trkpt>
      <trkpt lat="44.6108" lon="2.50897">
        <ele>434.4</ele>
        <time>2014-05-31T07:52:43Z</time>
      </trkpt>
      <trkpt lat="44.61068" lon="2.5088">
        <ele>430.6</ele>
        <time>2014-05-31T07:52:59Z</time>
      </trkpt>
      <trkpt lat="44.6106" lon="2.50868">
        <ele>426.8</ele>
        <time>2014-05-31T07:53:08Z</time>
      </trkpt>
      <trkpt lat="44.61044" lon="2.50851">
        <ele>420.5</ele>
        <time>2014-05-31T07:53:27Z</time>
      </trkpt>
      <trkpt lat="44.61033" lon="2.50847">
        <ele>422.6</ele>
        <time>2014-05-31T07:53:38Z</time>
      </trkpt>
      <trkpt lat="44.61019" lon="2.50842">
        <ele>420.7</ele>
        <time>2014-05-31T07:53:49Z</time>
      </trkpt>
      <trkpt lat="44.61007" lon="2.50836">
        <ele>417.8</ele>
        <time>2014-05-31T07:53:58Z</time>
      </trkpt>
      <trkpt lat="44.61005" lon="2.50836">
        <ele>417</ele>
        <time>2014-05-31T07:54:06Z</time>
      </trkpt>
      <trkpt lat="44.60989" lon="2.50833">
        <ele>416.5</ele>
        <time>2014-05-31T07:54:24Z</time>
      </trkpt>
      <trkpt lat="44.60982" lon="2.50843">
        <ele>413</ele>
        <time>2014-05-31T07:54:34Z</time>
      </trkpt>
      <trkpt lat="44.60973" lon="2.5085">
        <ele>417.1</ele>
        <time>2014-05-31T07:54:45Z</time>
      </trkpt>
      <trkpt lat="44.60973" lon="2.50854">
        <ele>418.1</ele>
        <time>2014-05-31T07:54:53Z</time>
      </trkpt>
      <trkpt lat="44.60955" lon="2.50893">
        <ele>420.8</ele>
        <time>2014-05-31T07:56:22Z</time>
      </trkpt>
      <trkpt lat="44.60947" lon="2.50908">
        <ele>422.5</ele>
        <time>2014-05-31T07:56:34Z</time>
      </trkpt>
      <trkpt lat="44.60945" lon="2.5091">
        <ele>423.1</ele>
        <time>2014-05-31T07:56:36Z</time>
      </trkpt>
      <trkpt lat="44.60945" lon="2.50916">
        <ele>425.9</ele>
        <time>2014-05-31T07:56:45Z</time>
      </trkpt>
      <trkpt lat="44.60944" lon="2.50933">
        <ele>431.6</ele>
        <time>2014-05-31T07:57:12Z</time>
      </trkpt>
      <trkpt lat="44.60944" lon="2.50933">
        <ele>431.6</ele>
        <time>2014-05-31T07:57:20Z</time>
      </trkpt>
      <trkpt lat="44.60944" lon="2.50933">
        <ele>431.6</ele>
        <time>2014-05-31T07:57:21Z</time>
      </trkpt>
      <trkpt lat="44.60932" lon="2.50947">
        <ele>433.5</ele>
        <time>2014-05-31T07:57:29Z</time>
      </trkpt>
      <trkpt lat="44.60932" lon="2.50947">
        <ele>433.5</ele>
        <time>2014-05-31T07:57:37Z</time>
      </trkpt>
      <trkpt lat="44.60932" lon="2.50947">
        <ele>433.5</ele>
        <time>2014-05-31T07:57:38Z</time>
      </trkpt>
      <trkpt lat="44.60921" lon="2.50958">
        <ele>434.3</ele>
        <time>2014-05-31T07:57:45Z</time>
      </trkpt>
      <trkpt lat="44.6091" lon="2.50944">
        <ele>435.8</ele>
        <time>2014-05-31T07:58:04Z</time>
      </trkpt>
      <trkpt lat="44.60909" lon="2.50904">
        <ele>439.2</ele>
        <time>2014-05-31T07:58:39Z</time>
      </trkpt>
      <trkpt lat="44.60912" lon="2.50882">
        <ele>436.6</ele>
        <time>2014-05-31T07:58:56Z</time>
      </trkpt>
      <trkpt lat="44.6091" lon="2.50869">
        <ele>438.4</ele>
        <time>2014-05-31T07:59:05Z</time>
      </trkpt>
      <trkpt lat="44.60895" lon="2.5084">
        <ele>446.3</ele>
        <time>2014-05-31T07:59:24Z</time>
      </trkpt>
      <trkpt lat="44.60888" lon="2.50824">
        <ele>445.7</ele>
        <time>2014-05-31T07:59:37Z</time>
      </trkpt>
      <trkpt lat="44.60882" lon="2.5081">
        <ele>446.2</ele>
        <time>2014-05-31T07:59:47Z</time>
      </trkpt>
      <trkpt lat="44.60879" lon="2.50794">
        <ele>444.8</ele>
        <time>2014-05-31T08:00:00Z</time>
      </trkpt>
      <trkpt lat="44.60873" lon="2.5077">
        <ele>448.4</ele>
        <time>2014-05-31T08:00:16Z</time>
      </trkpt>
      <trkpt lat="44.60909" lon="2.5074">
        <ele>457</ele>
        <time>2014-05-31T08:00:34Z</time>
      </trkpt>
      <trkpt lat="44.60893" lon="2.50718">
        <ele>458.4</ele>
        <time>2014-05-31T08:00:52Z</time>
      </trkpt>
      <trkpt lat="44.60892" lon="2.50717">
        <ele>458.2</ele>
        <time>2014-05-31T08:00:53Z</time>
      </trkpt>
      <trkpt lat="44.60887" lon="2.50708">
        <ele>457.3</ele>
        <time>2014-05-31T08:01:05Z</time>
      </trkpt>
      <trkpt lat="44.60875" lon="2.50694">
        <ele>455.3</ele>
        <time>2014-05-31T08:01:22Z</time>
      </trkpt>
      <trkpt lat="44.60874" lon="2.50655">
        <ele>453.6</ele>
        <time>2014-05-31T08:02:13Z</time>
      </trkpt>
      <trkpt lat="44.6087" lon="2.50634">
        <ele>453.8</ele>
        <time>2014-05-31T08:02:29Z</time>
      </trkpt>
      <trkpt lat="44.60866" lon="2.50608">
        <ele>457.2</ele>
        <time>2014-05-31T08:02:47Z</time>
      </trkpt>
      <trkpt lat="44.60862" lon="2.50591">
        <ele>458.3</ele>
        <time>2014-05-31T08:03:02Z</time>
      </trkpt>
      <trkpt lat="44.60857" lon="2.50577">
        <ele>456.9</ele>
        <time>2014-05-31T08:03:12Z</time>
      </trkpt>
      <trkpt lat="44.60851" lon="2.50557">
        <ele>458.7</ele>
        <time>2014-05-31T08:03:27Z</time>
      </trkpt>
      <trkpt lat="44.60843" lon="2.50531">
        <ele>459.7</ele>
        <time>2014-05-31T08:03:47Z</time>
      </trkpt>
      <trkpt lat="44.60838" lon="2.50503">
        <ele>462.2</ele>
        <time>2014-05-31T08:04:05Z</time>
      </trkpt>
      <trkpt lat="44.60836" lon="2.50484">
        <ele>467</ele>
        <time>2014-05-31T08:04:23Z</time>
      </trkpt>
      <trkpt lat="44.60832" lon="2.50471">
        <ele>467.8</ele>
        <time>2014-05-31T08:04:33Z</time>
      </trkpt>
      <trkpt lat="44.60826" lon="2.50449">
        <ele>460.9</ele>
        <time>2014-05-31T08:04:51Z</time>
      </trkpt>
      <trkpt lat="44.60821" lon="2.5044">
        <ele>461</ele>
        <time>2014-05-31T08:05:01Z</time>
      </trkpt>
      <trkpt lat="44.60822" lon="2.50442">
        <ele>462.2</ele>
        <time>2014-05-31T08:05:10Z</time>
      </trkpt>
      <trkpt lat="44.60803" lon="2.50418">
        <ele>464.5</ele>
        <time>2014-05-31T08:07:11Z</time>
      </trkpt>
      <trkpt lat="44.60787" lon="2.50409">
        <ele>468.7</ele>
        <time>2014-05-31T08:07:27Z</time>
      </trkpt>
      <trkpt lat="44.60773" lon="2.50392">
        <ele>470.5</ele>
        <time>2014-05-31T08:07:44Z</time>
      </trkpt>
      <trkpt lat="44.60758" lon="2.50381">
        <ele>475.8</ele>
        <time>2014-05-31T08:08:02Z</time>
      </trkpt>
      <trkpt lat="44.60747" lon="2.50371">
        <ele>470.9</ele>
        <time>2014-05-31T08:08:19Z</time>
      </trkpt>
      <trkpt lat="44.60737" lon="2.5036">
        <ele>468.4</ele>
        <time>2014-05-31T08:08:32Z</time>
      </trkpt>
      <trkpt lat="44.60726" lon="2.50358">
        <ele>468.5</ele>
        <time>2014-05-31T08:08:41Z</time>
      </trkpt>
      <trkpt lat="44.60714" lon="2.50353">
        <ele>464.9</ele>
        <time>2014-05-31T08:08:54Z</time>
      </trkpt>
      <trkpt lat="44.60699" lon="2.50335">
        <ele>466.1</ele>
        <time>2014-05-31T08:09:14Z</time>
      </trkpt>
      <trkpt lat="44.60694" lon="2.50314">
        <ele>466.9</ele>
        <time>2014-05-31T08:09:31Z</time>
      </trkpt>
      <trkpt lat="44.60699" lon="2.50291">
        <ele>466.4</ele>
        <time>2014-05-31T08:09:47Z</time>
      </trkpt>
      <trkpt lat="44.60698" lon="2.50269">
        <ele>461.6</ele>
        <time>2014-05-31T08:10:00Z</time>
      </trkpt>
      <trkpt lat="44.60697" lon="2.50262">
        <ele>461.8</ele>
        <time>2014-05-31T08:10:05Z</time>
      </trkpt>
      <trkpt lat="44.60687" lon="2.50255">
        <ele>457.9</ele>
        <time>2014-05-31T08:10:17Z</time>
      </trkpt>
      <trkpt lat="44.60673" lon="2.50248">
        <ele>461.6</ele>
        <time>2014-05-31T08:10:28Z</time>
      </trkpt>
      <trkpt lat="44.60663" lon="2.5024">
        <ele>463.8</ele>
        <time>2014-05-31T08:10:39Z</time>
      </trkpt>
      <trkpt lat="44.6065" lon="2.50228">
        <ele>464.9</ele>
        <time>2014-05-31T08:10:59Z</time>
      </trkpt>
      <trkpt lat="44.60638" lon="2.50233">
        <ele>462.6</ele>
        <time>2014-05-31T08:11:10Z</time>
      </trkpt>
      <trkpt lat="44.60634" lon="2.5024">
        <ele>462.7</ele>
        <time>2014-05-31T08:11:14Z</time>
      </trkpt>
      <trkpt lat="44.60625" lon="2.50228">
        <ele>457.9</ele>
        <time>2014-05-31T08:11:27Z</time>
      </trkpt>
      <trkpt lat="44.60624" lon="2.50204">
        <ele>457.9</ele>
        <time>2014-05-31T08:11:44Z</time>
      </trkpt>
      <trkpt lat="44.60626" lon="2.50177">
        <ele>458.9</ele>
        <time>2014-05-31T08:12:03Z</time>
      </trkpt>
      <trkpt lat="44.60629" lon="2.5015">
        <ele>462.3</ele>
        <time>2014-05-31T08:12:22Z</time>
      </trkpt>
      <trkpt lat="44.60629" lon="2.5015">
        <ele>462.3</ele>
        <time>2014-05-31T08:12:30Z</time>
      </trkpt>
      <trkpt lat="44.60629" lon="2.5015">
        <ele>462.3</ele>
        <time>2014-05-31T08:12:31Z</time>
      </trkpt>
      <trkpt lat="44.60628" lon="2.50108">
        <ele>461.9</ele>
        <time>2014-05-31T08:13:06Z</time>
      </trkpt>
      <trkpt lat="44.60626" lon="2.50087">
        <ele>462</ele>
        <time>2014-05-31T08:13:22Z</time>
      </trkpt>
      <trkpt lat="44.60619" lon="2.50068">
        <ele>464.5</ele>
        <time>2014-05-31T08:13:37Z</time>
      </trkpt>
      <trkpt lat="44.60611" lon="2.50055">
        <ele>465.6</ele>
        <time>2014-05-31T08:13:50Z</time>
      </trkpt>
      <trkpt lat="44.60598" lon="2.50043">
        <ele>466</ele>
        <time>2014-05-31T08:14:07Z</time>
      </trkpt>
      <trkpt lat="44.60581" lon="2.50032">
        <ele>465.4</ele>
        <time>2014-05-31T08:14:23Z</time>
      </trkpt>
      <trkpt lat="44.60569" lon="2.50023">
        <ele>465.2</ele>
        <time>2014-05-31T08:14:33Z</time>
      </trkpt>
      <trkpt lat="44.60561" lon="2.50026">
        <ele>466.2</ele>
        <time>2014-05-31T08:14:39Z</time>
      </trkpt>
      <trkpt lat="44.60556" lon="2.50023">
        <ele>466.1</ele>
        <time>2014-05-31T08:14:51Z</time>
      </trkpt>
      <trkpt lat="44.60536" lon="2.50003">
        <ele>465.9</ele>
        <time>2014-05-31T08:15:09Z</time>
      </trkpt>
      <trkpt lat="44.60524" lon="2.49997">
        <ele>466.3</ele>
        <time>2014-05-31T08:15:21Z</time>
      </trkpt>
      <trkpt lat="44.60518" lon="2.49986">
        <ele>469.8</ele>
        <time>2014-05-31T08:15:35Z</time>
      </trkpt>
      <trkpt lat="44.60505" lon="2.4997">
        <ele>477</ele>
        <time>2014-05-31T08:15:49Z</time>
      </trkpt>
      <trkpt lat="44.60498" lon="2.49957">
        <ele>475.7</ele>
        <time>2014-05-31T08:15:57Z</time>
      </trkpt>
      <trkpt lat="44.60495" lon="2.49948">
        <ele>476.1</ele>
        <time>2014-05-31T08:16:09Z</time>
      </trkpt>
      <trkpt lat="44.60484" lon="2.49922">
        <ele>475.7</ele>
        <time>2014-05-31T08:16:25Z</time>
      </trkpt>
      <trkpt lat="44.60482" lon="2.49899">
        <ele>472.9</ele>
        <time>2014-05-31T08:16:41Z</time>
      </trkpt>
      <trkpt lat="44.60485" lon="2.49876">
        <ele>473.2</ele>
        <time>2014-05-31T08:16:56Z</time>
      </trkpt>
      <trkpt lat="44.60482" lon="2.49853">
        <ele>474</ele>
        <time>2014-05-31T08:17:13Z</time>
      </trkpt>
      <trkpt lat="44.60481" lon="2.49826">
        <ele>474.1</ele>
        <time>2014-05-31T08:17:32Z</time>
      </trkpt>
      <trkpt lat="44.6048" lon="2.498">
        <ele>472.2</ele>
        <time>2014-05-31T08:17:49Z</time>
      </trkpt>
      <trkpt lat="44.60481" lon="2.49773">
        <ele>470.7</ele>
        <time>2014-05-31T08:18:05Z</time>
      </trkpt>
      <trkpt lat="44.60482" lon="2.49759">
        <ele>471.8</ele>
        <time>2014-05-31T08:18:14Z</time>
      </trkpt>
      <trkpt lat="44.60485" lon="2.49735">
        <ele>471.3</ele>
        <time>2014-05-31T08:18:31Z</time>
      </trkpt>
      <trkpt lat="44.60489" lon="2.4971">
        <ele>468.2</ele>
        <time>2014-05-31T08:18:48Z</time>
      </trkpt>
      <trkpt lat="44.60503" lon="2.49685">
        <ele>467.7</ele>
        <time>2014-05-31T08:19:04Z</time>
      </trkpt>
      <trkpt lat="44.60512" lon="2.49665">
        <ele>470.6</ele>
        <time>2014-05-31T08:19:16Z</time>
      </trkpt>
      <trkpt lat="44.60518" lon="2.49646">
        <ele>469.5</ele>
        <time>2014-05-31T08:19:30Z</time>
      </trkpt>
      <trkpt lat="44.60518" lon="2.49618">
        <ele>465.2</ele>
        <time>2014-05-31T08:19:48Z</time>
      </trkpt>
      <trkpt lat="44.60515" lon="2.49595">
        <ele>471.4</ele>
        <time>2014-05-31T08:20:06Z</time>
      </trkpt>
      <trkpt lat="44.60507" lon="2.49581">
        <ele>464.8</ele>
        <time>2014-05-31T08:20:19Z</time>
      </trkpt>
      <trkpt lat="44.60507" lon="2.49566">
        <ele>466</ele>
        <time>2014-05-31T08:20:31Z</time>
      </trkpt>
      <trkpt lat="44.60506" lon="2.49546">
        <ele>462.2</ele>
        <time>2014-05-31T08:20:47Z</time>
      </trkpt>
      <trkpt lat="44.60511" lon="2.49512">
        <ele>484.1</ele>
        <time>2014-05-31T08:21:29Z</time>
      </trkpt>
      <trkpt lat="44.60509" lon="2.49491">
        <ele>490.7</ele>
        <time>2014-05-31T08:21:47Z</time>
      </trkpt>
      <trkpt lat="44.6051" lon="2.49477">
        <ele>491.3</ele>
        <time>2014-05-31T08:21:59Z</time>
      </trkpt>
      <trkpt lat="44.60499" lon="2.49442">
        <ele>492.3</ele>
        <time>2014-05-31T08:22:32Z</time>
      </trkpt>
      <trkpt lat="44.605" lon="2.49412">
        <ele>494.9</ele>
        <time>2014-05-31T08:22:59Z</time>
      </trkpt>
      <trkpt lat="44.60501" lon="2.49391">
        <ele>497</ele>
        <time>2014-05-31T08:23:16Z</time>
      </trkpt>
      <trkpt lat="44.60497" lon="2.49357">
        <ele>500.5</ele>
        <time>2014-05-31T08:24:00Z</time>
      </trkpt>
      <trkpt lat="44.60492" lon="2.49337">
        <ele>499.4</ele>
        <time>2014-05-31T08:24:11Z</time>
      </trkpt>
      <trkpt lat="44.60484" lon="2.4932">
        <ele>503.9</ele>
        <time>2014-05-31T08:24:24Z</time>
      </trkpt>
      <trkpt lat="44.60481" lon="2.49303">
        <ele>506.5</ele>
        <time>2014-05-31T08:24:39Z</time>
      </trkpt>
      <trkpt lat="44.60465" lon="2.49273">
        <ele>511.1</ele>
        <time>2014-05-31T08:25:19Z</time>
      </trkpt>
      <trkpt lat="44.60458" lon="2.49254">
        <ele>511.2</ele>
        <time>2014-05-31T08:25:28Z</time>
      </trkpt>
      <trkpt lat="44.60453" lon="2.49234">
        <ele>514.2</ele>
        <time>2014-05-31T08:25:46Z</time>
      </trkpt>
      <trkpt lat="44.6046" lon="2.49222">
        <ele>515.3</ele>
        <time>2014-05-31T08:25:56Z</time>
      </trkpt>
      <trkpt lat="44.60455" lon="2.49207">
        <ele>525.3</ele>
        <time>2014-05-31T08:26:13Z</time>
      </trkpt>
      <trkpt lat="44.60446" lon="2.492">
        <ele>523</ele>
        <time>2014-05-31T08:26:20Z</time>
      </trkpt>
      <trkpt lat="44.6044" lon="2.49196">
        <ele>524.7</ele>
        <time>2014-05-31T08:26:31Z</time>
      </trkpt>
      <trkpt lat="44.60423" lon="2.49181">
        <ele>521.5</ele>
        <time>2014-05-31T08:26:53Z</time>
      </trkpt>
      <trkpt lat="44.60423" lon="2.49181">
        <ele>521.5</ele>
        <time>2014-05-31T08:27:01Z</time>
      </trkpt>
      <trkpt lat="44.60423" lon="2.49181">
        <ele>521.5</ele>
        <time>2014-05-31T08:27:02Z</time>
      </trkpt>
      <trkpt lat="44.6042" lon="2.49164">
        <ele>525.1</ele>
        <time>2014-05-31T08:27:13Z</time>
      </trkpt>
      <trkpt lat="44.6042" lon="2.49164">
        <ele>525.1</ele>
        <time>2014-05-31T08:27:18Z</time>
      </trkpt>
      <trkpt lat="44.6042" lon="2.49164">
        <ele>525.1</ele>
        <time>2014-05-31T08:27:19Z</time>
      </trkpt>
      <trkpt lat="44.60417" lon="2.49148">
        <ele>528.4</ele>
        <time>2014-05-31T08:27:31Z</time>
      </trkpt>
      <trkpt lat="44.60421" lon="2.49112">
        <ele>528.7</ele>
        <time>2014-05-31T08:28:08Z</time>
      </trkpt>
      <trkpt lat="44.60429" lon="2.49088">
        <ele>529</ele>
        <time>2014-05-31T08:28:28Z</time>
      </trkpt>
      <trkpt lat="44.60437" lon="2.49069">
        <ele>531.5</ele>
        <time>2014-05-31T08:28:46Z</time>
      </trkpt>
      <trkpt lat="44.60449" lon="2.49056">
        <ele>535.7</ele>
        <time>2014-05-31T08:28:59Z</time>
      </trkpt>
      <trkpt lat="44.60447" lon="2.4905">
        <ele>533.5</ele>
        <time>2014-05-31T08:29:07Z</time>
      </trkpt>
      <trkpt lat="44.60459" lon="2.49011">
        <ele>540.9</ele>
        <time>2014-05-31T08:29:50Z</time>
      </trkpt>
      <trkpt lat="44.60459" lon="2.49011">
        <ele>540.9</ele>
        <time>2014-05-31T08:29:57Z</time>
      </trkpt>
      <trkpt lat="44.60463" lon="2.48992">
        <ele>540.6</ele>
        <time>2014-05-31T08:30:09Z</time>
      </trkpt>
      <trkpt lat="44.60471" lon="2.48977">
        <ele>546.4</ele>
        <time>2014-05-31T08:30:22Z</time>
      </trkpt>
      <trkpt lat="44.60481" lon="2.48939">
        <ele>550.2</ele>
        <time>2014-05-31T08:30:57Z</time>
      </trkpt>
      <trkpt lat="44.60487" lon="2.48921">
        <ele>545.1</ele>
        <time>2014-05-31T08:31:15Z</time>
      </trkpt>
      <trkpt lat="44.60498" lon="2.48894">
        <ele>546.4</ele>
        <time>2014-05-31T08:31:40Z</time>
      </trkpt>
      <trkpt lat="44.60504" lon="2.48873">
        <ele>548.9</ele>
        <time>2014-05-31T08:31:54Z</time>
      </trkpt>
      <trkpt lat="44.60514" lon="2.48851">
        <ele>550</ele>
        <time>2014-05-31T08:32:13Z</time>
      </trkpt>
      <trkpt lat="44.6052" lon="2.48831">
        <ele>556.1</ele>
        <time>2014-05-31T08:32:29Z</time>
      </trkpt>
      <trkpt lat="44.60523" lon="2.48825">
        <ele>556.2</ele>
        <time>2014-05-31T08:32:33Z</time>
      </trkpt>
      <trkpt lat="44.6052" lon="2.48831">
        <ele>556.1</ele>
        <time>2014-05-31T08:32:43Z</time>
      </trkpt>
      <trkpt lat="44.6052" lon="2.48831">
        <ele>494</ele>
        <time>2014-05-31T08:33:12Z</time>
      </trkpt>
      <trkpt lat="44.6052" lon="2.48831">
        <ele>494</ele>
        <time>2014-05-31T08:33:14Z</time>
      </trkpt>
      <trkpt lat="44.60524" lon="2.4881">
        <ele>495</ele>
        <time>2014-05-31T08:46:41Z</time>
      </trkpt>
      <trkpt lat="44.60524" lon="2.4881">
        <ele>547.8</ele>
        <time>2014-05-31T08:46:48Z</time>
      </trkpt>
      <trkpt lat="44.60521" lon="2.48789">
        <ele>548.7</ele>
        <time>2014-05-31T08:46:58Z</time>
      </trkpt>
      <trkpt lat="44.60522" lon="2.48769">
        <ele>551.4</ele>
        <time>2014-05-31T08:47:16Z</time>
      </trkpt>
      <trkpt lat="44.60528" lon="2.48741">
        <ele>553.5</ele>
        <time>2014-05-31T08:47:32Z</time>
      </trkpt>
      <trkpt lat="44.60528" lon="2.48719">
        <ele>556.5</ele>
        <time>2014-05-31T08:47:44Z</time>
      </trkpt>
      <trkpt lat="44.60518" lon="2.48694">
        <ele>561.5</ele>
        <time>2014-05-31T08:48:00Z</time>
      </trkpt>
      <trkpt lat="44.60505" lon="2.48678">
        <ele>560</ele>
        <time>2014-05-31T08:48:16Z</time>
      </trkpt>
      <trkpt lat="44.60498" lon="2.48665">
        <ele>555.3</ele>
        <time>2014-05-31T08:48:25Z</time>
      </trkpt>
      <trkpt lat="44.6049" lon="2.48654">
        <ele>551.1</ele>
        <time>2014-05-31T08:48:37Z</time>
      </trkpt>
      <trkpt lat="44.60503" lon="2.48636">
        <ele>560.8</ele>
        <time>2014-05-31T08:48:56Z</time>
      </trkpt>
      <trkpt lat="44.60504" lon="2.48612">
        <ele>547</ele>
        <time>2014-05-31T08:49:13Z</time>
      </trkpt>
      <trkpt lat="44.60514" lon="2.48597">
        <ele>554.8</ele>
        <time>2014-05-31T08:49:23Z</time>
      </trkpt>
      <trkpt lat="44.60522" lon="2.48581">
        <ele>557.4</ele>
        <time>2014-05-31T08:49:37Z</time>
      </trkpt>
      <trkpt lat="44.60521" lon="2.48574">
        <ele>553.3</ele>
        <time>2014-05-31T08:49:44Z</time>
      </trkpt>
      <trkpt lat="44.6052" lon="2.48562">
        <ele>554.8</ele>
        <time>2014-05-31T08:49:57Z</time>
      </trkpt>
      <trkpt lat="44.6052" lon="2.48562">
        <ele>554.8</ele>
        <time>2014-05-31T08:50:05Z</time>
      </trkpt>
      <trkpt lat="44.6052" lon="2.48562">
        <ele>554.8</ele>
        <time>2014-05-31T08:50:06Z</time>
      </trkpt>
      <trkpt lat="44.60533" lon="2.48539">
        <ele>560.2</ele>
        <time>2014-05-31T08:51:04Z</time>
      </trkpt>
      <trkpt lat="44.60533" lon="2.48539">
        <ele>560.2</ele>
        <time>2014-05-31T08:51:11Z</time>
      </trkpt>
      <trkpt lat="44.60533" lon="2.48539">
        <ele>560.2</ele>
        <time>2014-05-31T08:51:12Z</time>
      </trkpt>
      <trkpt lat="44.60522" lon="2.48507">
        <ele>555.7</ele>
        <time>2014-05-31T08:53:33Z</time>
      </trkpt>
      <trkpt lat="44.60519" lon="2.48495">
        <ele>555.7</ele>
        <time>2014-05-31T08:53:43Z</time>
      </trkpt>
      <trkpt lat="44.60517" lon="2.48484">
        <ele>553.6</ele>
        <time>2014-05-31T08:53:57Z</time>
      </trkpt>
      <trkpt lat="44.60517" lon="2.48484">
        <ele>553.6</ele>
        <time>2014-05-31T08:54:05Z</time>
      </trkpt>
      <trkpt lat="44.60517" lon="2.48484">
        <ele>553.6</ele>
        <time>2014-05-31T08:54:06Z</time>
      </trkpt>
      <trkpt lat="44.60502" lon="2.48468">
        <ele>554.1</ele>
        <time>2014-05-31T08:54:54Z</time>
      </trkpt>
      <trkpt lat="44.60499" lon="2.48455">
        <ele>554.6</ele>
        <time>2014-05-31T08:55:05Z</time>
      </trkpt>
      <trkpt lat="44.60492" lon="2.48428">
        <ele>555.9</ele>
        <time>2014-05-31T08:55:30Z</time>
      </trkpt>
      <trkpt lat="44.60477" lon="2.48419">
        <ele>554.6</ele>
        <time>2014-05-31T08:55:50Z</time>
      </trkpt>
      <trkpt lat="44.60471" lon="2.48403">
        <ele>545.6</ele>
        <time>2014-05-31T08:56:04Z</time>
      </trkpt>
      <trkpt lat="44.60461" lon="2.48398">
        <ele>547.6</ele>
        <time>2014-05-31T08:56:14Z</time>
      </trkpt>
      <trkpt lat="44.60453" lon="2.4839">
        <ele>556.5</ele>
        <time>2014-05-31T08:56:26Z</time>
      </trkpt>
      <trkpt lat="44.60452" lon="2.48392">
        <ele>557.1</ele>
        <time>2014-05-31T08:56:37Z</time>
      </trkpt>
      <trkpt lat="44.60444" lon="2.48376">
        <ele>549.7</ele>
        <time>2014-05-31T08:57:39Z</time>
      </trkpt>
      <trkpt lat="44.60445" lon="2.48355">
        <ele>552.8</ele>
        <time>2014-05-31T08:57:55Z</time>
      </trkpt>
      <trkpt lat="44.60449" lon="2.48333">
        <ele>557.7</ele>
        <time>2014-05-31T08:58:10Z</time>
      </trkpt>
      <trkpt lat="44.60455" lon="2.48309">
        <ele>561.1</ele>
        <time>2014-05-31T08:58:27Z</time>
      </trkpt>
      <trkpt lat="44.60459" lon="2.48291">
        <ele>559.9</ele>
        <time>2014-05-31T08:58:43Z</time>
      </trkpt>
      <trkpt lat="44.60459" lon="2.48277">
        <ele>559</ele>
        <time>2014-05-31T08:58:54Z</time>
      </trkpt>
      <trkpt lat="44.60464" lon="2.48266">
        <ele>558</ele>
        <time>2014-05-31T08:59:08Z</time>
      </trkpt>
      <trkpt lat="44.60475" lon="2.4826">
        <ele>564.2</ele>
        <time>2014-05-31T08:59:16Z</time>
      </trkpt>
      <trkpt lat="44.60479" lon="2.48252">
        <ele>570.9</ele>
        <time>2014-05-31T08:59:28Z</time>
      </trkpt>
      <trkpt lat="44.60496" lon="2.48218">
        <ele>576.3</ele>
        <time>2014-05-31T09:00:19Z</time>
      </trkpt>
      <trkpt lat="44.60504" lon="2.48212">
        <ele>575.8</ele>
        <time>2014-05-31T09:00:28Z</time>
      </trkpt>
      <trkpt lat="44.60509" lon="2.48203">
        <ele>579.9</ele>
        <time>2014-05-31T09:00:38Z</time>
      </trkpt>
      <trkpt lat="44.60514" lon="2.48192">
        <ele>584.1</ele>
        <time>2014-05-31T09:00:52Z</time>
      </trkpt>
      <trkpt lat="44.6052" lon="2.48148">
        <ele>588.2</ele>
        <time>2014-05-31T09:01:36Z</time>
      </trkpt>
      <trkpt lat="44.60525" lon="2.48144">
        <ele>589</ele>
        <time>2014-05-31T09:01:41Z</time>
      </trkpt>
      <trkpt lat="44.60524" lon="2.48136">
        <ele>587.8</ele>
        <time>2014-05-31T09:01:50Z</time>
      </trkpt>
      <trkpt lat="44.60536" lon="2.48114">
        <ele>584.5</ele>
        <time>2014-05-31T09:02:13Z</time>
      </trkpt>
      <trkpt lat="44.60545" lon="2.48099">
        <ele>590.4</ele>
        <time>2014-05-31T09:02:28Z</time>
      </trkpt>
      <trkpt lat="44.60549" lon="2.48081">
        <ele>593.7</ele>
        <time>2014-05-31T09:02:45Z</time>
      </trkpt>
      <trkpt lat="44.60553" lon="2.48065">
        <ele>596.1</ele>
        <time>2014-05-31T09:03:02Z</time>
      </trkpt>
      <trkpt lat="44.60558" lon="2.48028">
        <ele>604.9</ele>
        <time>2014-05-31T09:03:40Z</time>
      </trkpt>
      <trkpt lat="44.60547" lon="2.4804">
        <ele>604.2</ele>
        <time>2014-05-31T09:03:55Z</time>
      </trkpt>
      <trkpt lat="44.60562" lon="2.48007">
        <ele>608.4</ele>
        <time>2014-05-31T09:04:58Z</time>
      </trkpt>
      <trkpt lat="44.60561" lon="2.4797">
        <ele>611.4</ele>
        <time>2014-05-31T09:05:36Z</time>
      </trkpt>
      <trkpt lat="44.60581" lon="2.47936">
        <ele>615.9</ele>
        <time>2014-05-31T09:06:31Z</time>
      </trkpt>
      <trkpt lat="44.6059" lon="2.47928">
        <ele>614.4</ele>
        <time>2014-05-31T09:06:38Z</time>
      </trkpt>
      <trkpt lat="44.60592" lon="2.47925">
        <ele>611.8</ele>
        <time>2014-05-31T09:06:42Z</time>
      </trkpt>
      <trkpt lat="44.60598" lon="2.4792">
        <ele>612.5</ele>
        <time>2014-05-31T09:06:51Z</time>
      </trkpt>
      <trkpt lat="44.60609" lon="2.47911">
        <ele>614</ele>
        <time>2014-05-31T09:06:57Z</time>
      </trkpt>
      <trkpt lat="44.60613" lon="2.47906">
        <ele>615.7</ele>
        <time>2014-05-31T09:07:02Z</time>
      </trkpt>
      <trkpt lat="44.60616" lon="2.47898">
        <ele>616.9</ele>
        <time>2014-05-31T09:07:10Z</time>
      </trkpt>
      <trkpt lat="44.60615" lon="2.47889">
        <ele>617.8</ele>
        <time>2014-05-31T09:07:15Z</time>
      </trkpt>
      <trkpt lat="44.60612" lon="2.47887">
        <ele>618.3</ele>
        <time>2014-05-31T09:07:23Z</time>
      </trkpt>
      <trkpt lat="44.60625" lon="2.47854">
        <ele>620.4</ele>
        <time>2014-05-31T09:07:55Z</time>
      </trkpt>
      <trkpt lat="44.60627" lon="2.47849">
        <ele>620.7</ele>
        <time>2014-05-31T09:07:58Z</time>
      </trkpt>
      <trkpt lat="44.60626" lon="2.47845">
        <ele>621.6</ele>
        <time>2014-05-31T09:08:06Z</time>
      </trkpt>
      <trkpt lat="44.60638" lon="2.47822">
        <ele>626.8</ele>
        <time>2014-05-31T09:08:27Z</time>
      </trkpt>
      <trkpt lat="44.60637" lon="2.47809">
        <ele>624.7</ele>
        <time>2014-05-31T09:08:35Z</time>
      </trkpt>
      <trkpt lat="44.6063" lon="2.47794">
        <ele>628.2</ele>
        <time>2014-05-31T09:08:48Z</time>
      </trkpt>
      <trkpt lat="44.60626" lon="2.47786">
        <ele>635.6</ele>
        <time>2014-05-31T09:08:59Z</time>
      </trkpt>
      <trkpt lat="44.60621" lon="2.47775">
        <ele>637.3</ele>
        <time>2014-05-31T09:09:09Z</time>
      </trkpt>
      <trkpt lat="44.60614" lon="2.4776">
        <ele>635.5</ele>
        <time>2014-05-31T09:09:20Z</time>
      </trkpt>
      <trkpt lat="44.60607" lon="2.47736">
        <ele>644</ele>
        <time>2014-05-31T09:09:36Z</time>
      </trkpt>
      <trkpt lat="44.60603" lon="2.47734">
        <ele>642.4</ele>
        <time>2014-05-31T09:09:45Z</time>
      </trkpt>
      <trkpt lat="44.60585" lon="2.47702">
        <ele>639.6</ele>
        <time>2014-05-31T09:10:19Z</time>
      </trkpt>
      <trkpt lat="44.60575" lon="2.47683">
        <ele>642.1</ele>
        <time>2014-05-31T09:10:34Z</time>
      </trkpt>
      <trkpt lat="44.60566" lon="2.47671">
        <ele>642.2</ele>
        <time>2014-05-31T09:10:47Z</time>
      </trkpt>
      <trkpt lat="44.60557" lon="2.47641">
        <ele>641.6</ele>
        <time>2014-05-31T09:11:08Z</time>
      </trkpt>
      <trkpt lat="44.60553" lon="2.47625">
        <ele>639.4</ele>
        <time>2014-05-31T09:11:21Z</time>
      </trkpt>
      <trkpt lat="44.60551" lon="2.47607">
        <ele>639.3</ele>
        <time>2014-05-31T09:11:33Z</time>
      </trkpt>
      <trkpt lat="44.60545" lon="2.47581">
        <ele>637.1</ele>
        <time>2014-05-31T09:11:50Z</time>
      </trkpt>
      <trkpt lat="44.60543" lon="2.47558">
        <ele>637.1</ele>
        <time>2014-05-31T09:12:05Z</time>
      </trkpt>
      <trkpt lat="44.60539" lon="2.47535">
        <ele>638.3</ele>
        <time>2014-05-31T09:12:21Z</time>
      </trkpt>
      <trkpt lat="44.60537" lon="2.4751">
        <ele>638.1</ele>
        <time>2014-05-31T09:12:40Z</time>
      </trkpt>
      <trkpt lat="44.60534" lon="2.47492">
        <ele>637.2</ele>
        <time>2014-05-31T09:12:56Z</time>
      </trkpt>
      <trkpt lat="44.60533" lon="2.47472">
        <ele>637.6</ele>
        <time>2014-05-31T09:13:09Z</time>
      </trkpt>
      <trkpt lat="44.60528" lon="2.47451">
        <ele>644.5</ele>
        <time>2014-05-31T09:13:28Z</time>
      </trkpt>
      <trkpt lat="44.60536" lon="2.4743">
        <ele>646</ele>
        <time>2014-05-31T09:13:45Z</time>
      </trkpt>
      <trkpt lat="44.60539" lon="2.47425">
        <ele>646.7</ele>
        <time>2014-05-31T09:13:49Z</time>
      </trkpt>
      <trkpt lat="44.60534" lon="2.4742">
        <ele>648.5</ele>
        <time>2014-05-31T09:13:57Z</time>
      </trkpt>
      <trkpt lat="44.60546" lon="2.47413">
        <ele>649.1</ele>
        <time>2014-05-31T09:14:42Z</time>
      </trkpt>
      <trkpt lat="44.60535" lon="2.47407">
        <ele>643.1</ele>
        <time>2014-05-31T09:14:45Z</time>
      </trkpt>
      <trkpt lat="44.60543" lon="2.47394">
        <ele>647</ele>
        <time>2014-05-31T09:15:00Z</time>
      </trkpt>
      <trkpt lat="44.60546" lon="2.47373">
        <ele>650.4</ele>
        <time>2014-05-31T09:15:16Z</time>
      </trkpt>
      <trkpt lat="44.60547" lon="2.47357">
        <ele>652.7</ele>
        <time>2014-05-31T09:15:32Z</time>
      </trkpt>
      <trkpt lat="44.60548" lon="2.47334">
        <ele>655.6</ele>
        <time>2014-05-31T09:15:49Z</time>
      </trkpt>
      <trkpt lat="44.6054" lon="2.47324">
        <ele>653.9</ele>
        <time>2014-05-31T09:15:59Z</time>
      </trkpt>
      <trkpt lat="44.6054" lon="2.47324">
        <ele>653.9</ele>
        <time>2014-05-31T09:16:06Z</time>
      </trkpt>
      <trkpt lat="44.6054" lon="2.47324">
        <ele>653.9</ele>
        <time>2014-05-31T09:16:07Z</time>
      </trkpt>
      <trkpt lat="44.60539" lon="2.47305">
        <ele>654.9</ele>
        <time>2014-05-31T09:16:16Z</time>
      </trkpt>
      <trkpt lat="44.60536" lon="2.47277">
        <ele>655.2</ele>
        <time>2014-05-31T09:16:32Z</time>
      </trkpt>
      <trkpt lat="44.60534" lon="2.47259">
        <ele>658</ele>
        <time>2014-05-31T09:16:47Z</time>
      </trkpt>
      <trkpt lat="44.60534" lon="2.47233">
        <ele>660.6</ele>
        <time>2014-05-31T09:17:06Z</time>
      </trkpt>
      <trkpt lat="44.60529" lon="2.47214">
        <ele>656.2</ele>
        <time>2014-05-31T09:17:21Z</time>
      </trkpt>
      <trkpt lat="44.60524" lon="2.47198">
        <ele>656.4</ele>
        <time>2014-05-31T09:17:31Z</time>
      </trkpt>
      <trkpt lat="44.60524" lon="2.47178">
        <ele>660.4</ele>
        <time>2014-05-31T09:17:45Z</time>
      </trkpt>
      <trkpt lat="44.60522" lon="2.47168">
        <ele>660.4</ele>
        <time>2014-05-31T09:18:00Z</time>
      </trkpt>
      <trkpt lat="44.60518" lon="2.47154">
        <ele>658</ele>
        <time>2014-05-31T09:18:08Z</time>
      </trkpt>
      <trkpt lat="44.60518" lon="2.47154">
        <ele>658</ele>
        <time>2014-05-31T09:18:13Z</time>
      </trkpt>
      <trkpt lat="44.6052" lon="2.4714">
        <ele>659.8</ele>
        <time>2014-05-31T09:18:18Z</time>
      </trkpt>
      <trkpt lat="44.6052" lon="2.4712">
        <ele>658.4</ele>
        <time>2014-05-31T09:18:33Z</time>
      </trkpt>
      <trkpt lat="44.60528" lon="2.47098">
        <ele>660</ele>
        <time>2014-05-31T09:18:49Z</time>
      </trkpt>
      <trkpt lat="44.60533" lon="2.47088">
        <ele>663.8</ele>
        <time>2014-05-31T09:18:57Z</time>
      </trkpt>
      <trkpt lat="44.60524" lon="2.47075">
        <ele>656.9</ele>
        <time>2014-05-31T09:19:05Z</time>
      </trkpt>
      <trkpt lat="44.60524" lon="2.47075">
        <ele>656.9</ele>
        <time>2014-05-31T09:19:10Z</time>
      </trkpt>
      <trkpt lat="44.60531" lon="2.47066">
        <ele>658.5</ele>
        <time>2014-05-31T09:19:13Z</time>
      </trkpt>
      <trkpt lat="44.6053" lon="2.47053">
        <ele>656.7</ele>
        <time>2014-05-31T09:19:22Z</time>
      </trkpt>
      <trkpt lat="44.6054" lon="2.4703">
        <ele>658.7</ele>
        <time>2014-05-31T09:19:39Z</time>
      </trkpt>
      <trkpt lat="44.60545" lon="2.47015">
        <ele>658</ele>
        <time>2014-05-31T09:19:51Z</time>
      </trkpt>
      <trkpt lat="44.60552" lon="2.46995">
        <ele>659</ele>
        <time>2014-05-31T09:20:06Z</time>
      </trkpt>
      <trkpt lat="44.60566" lon="2.46965">
        <ele>661.2</ele>
        <time>2014-05-31T09:20:25Z</time>
      </trkpt>
      <trkpt lat="44.60566" lon="2.46965">
        <ele>661.2</ele>
        <time>2014-05-31T09:20:30Z</time>
      </trkpt>
      <trkpt lat="44.60572" lon="2.46953">
        <ele>662.6</ele>
        <time>2014-05-31T09:20:35Z</time>
      </trkpt>
      <trkpt lat="44.6057" lon="2.46934">
        <ele>660.1</ele>
        <time>2014-05-31T09:20:46Z</time>
      </trkpt>
      <trkpt lat="44.60574" lon="2.46914">
        <ele>658.3</ele>
        <time>2014-05-31T09:21:04Z</time>
      </trkpt>
      <trkpt lat="44.60574" lon="2.46914">
        <ele>658.3</ele>
        <time>2014-05-31T09:21:11Z</time>
      </trkpt>
      <trkpt lat="44.60574" lon="2.46914">
        <ele>658.3</ele>
        <time>2014-05-31T09:21:12Z</time>
      </trkpt>
      <trkpt lat="44.60574" lon="2.46914">
        <ele>601</ele>
        <time>2014-05-31T09:21:33Z</time>
      </trkpt>
      <trkpt lat="44.60574" lon="2.46914">
        <ele>601</ele>
        <time>2014-05-31T09:21:37Z</time>
      </trkpt>
      <trkpt lat="44.606" lon="2.4675">
        <ele>659.7</ele>
        <time>2014-05-31T09:25:23Z</time>
      </trkpt>
      <trkpt lat="44.60605" lon="2.46727">
        <ele>661.2</ele>
        <time>2014-05-31T09:25:40Z</time>
      </trkpt>
      <trkpt lat="44.60612" lon="2.46708">
        <ele>658.6</ele>
        <time>2014-05-31T09:25:55Z</time>
      </trkpt>
      <trkpt lat="44.6062" lon="2.46683">
        <ele>657.3</ele>
        <time>2014-05-31T09:26:13Z</time>
      </trkpt>
      <trkpt lat="44.60626" lon="2.46667">
        <ele>655.2</ele>
        <time>2014-05-31T09:26:28Z</time>
      </trkpt>
      <trkpt lat="44.60634" lon="2.46637">
        <ele>658.5</ele>
        <time>2014-05-31T09:26:47Z</time>
      </trkpt>
      <trkpt lat="44.60634" lon="2.46637">
        <ele>658.5</ele>
        <time>2014-05-31T09:26:54Z</time>
      </trkpt>
      <trkpt lat="44.60634" lon="2.46637">
        <ele>658.5</ele>
        <time>2014-05-31T09:26:55Z</time>
      </trkpt>
      <trkpt lat="44.6064" lon="2.46619">
        <ele>661.2</ele>
        <time>2014-05-31T09:27:44Z</time>
      </trkpt>
      <trkpt lat="44.60646" lon="2.46602">
        <ele>661.1</ele>
        <time>2014-05-31T09:27:56Z</time>
      </trkpt>
      <trkpt lat="44.60652" lon="2.46578">
        <ele>662.8</ele>
        <time>2014-05-31T09:28:11Z</time>
      </trkpt>
      <trkpt lat="44.60656" lon="2.46556">
        <ele>661.7</ele>
        <time>2014-05-31T09:28:25Z</time>
      </trkpt>
      <trkpt lat="44.60659" lon="2.4653">
        <ele>661.1</ele>
        <time>2014-05-31T09:28:41Z</time>
      </trkpt>
      <trkpt lat="44.6066" lon="2.46509">
        <ele>660.9</ele>
        <time>2014-05-31T09:28:55Z</time>
      </trkpt>
      <trkpt lat="44.60662" lon="2.46483">
        <ele>661.3</ele>
        <time>2014-05-31T09:29:12Z</time>
      </trkpt>
      <trkpt lat="44.60662" lon="2.46465">
        <ele>659.1</ele>
        <time>2014-05-31T09:29:24Z</time>
      </trkpt>
      <trkpt lat="44.60662" lon="2.46442">
        <ele>661.5</ele>
        <time>2014-05-31T09:29:38Z</time>
      </trkpt>
      <trkpt lat="44.60663" lon="2.46417">
        <ele>660.1</ele>
        <time>2014-05-31T09:29:54Z</time>
      </trkpt>
      <trkpt lat="44.60664" lon="2.4639">
        <ele>661.8</ele>
        <time>2014-05-31T09:30:12Z</time>
      </trkpt>
      <trkpt lat="44.60666" lon="2.46367">
        <ele>663.8</ele>
        <time>2014-05-31T09:30:28Z</time>
      </trkpt>
      <trkpt lat="44.60668" lon="2.46348">
        <ele>662.5</ele>
        <time>2014-05-31T09:30:42Z</time>
      </trkpt>
      <trkpt lat="44.60674" lon="2.4633">
        <ele>664.3</ele>
        <time>2014-05-31T09:30:57Z</time>
      </trkpt>
      <trkpt lat="44.60678" lon="2.46309">
        <ele>668.6</ele>
        <time>2014-05-31T09:31:13Z</time>
      </trkpt>
      <trkpt lat="44.60683" lon="2.46286">
        <ele>670.2</ele>
        <time>2014-05-31T09:31:30Z</time>
      </trkpt>
      <trkpt lat="44.60688" lon="2.46261">
        <ele>671.2</ele>
        <time>2014-05-31T09:31:45Z</time>
      </trkpt>
      <trkpt lat="44.60691" lon="2.46238">
        <ele>670.7</ele>
        <time>2014-05-31T09:32:00Z</time>
      </trkpt>
      <trkpt lat="44.60694" lon="2.46226">
        <ele>672.8</ele>
        <time>2014-05-31T09:32:09Z</time>
      </trkpt>
      <trkpt lat="44.60698" lon="2.46197">
        <ele>670.3</ele>
        <time>2014-05-31T09:32:28Z</time>
      </trkpt>
      <trkpt lat="44.60698" lon="2.46168">
        <ele>676.4</ele>
        <time>2014-05-31T09:32:44Z</time>
      </trkpt>
      <trkpt lat="44.60706" lon="2.46149">
        <ele>679.4</ele>
        <time>2014-05-31T09:32:57Z</time>
      </trkpt>
      <trkpt lat="44.60719" lon="2.46134">
        <ele>679.9</ele>
        <time>2014-05-31T09:33:10Z</time>
      </trkpt>
      <trkpt lat="44.60729" lon="2.46127">
        <ele>678.2</ele>
        <time>2014-05-31T09:33:23Z</time>
      </trkpt>
      <trkpt lat="44.60741" lon="2.46123">
        <ele>678.2</ele>
        <time>2014-05-31T09:33:35Z</time>
      </trkpt>
      <trkpt lat="44.60761" lon="2.46119">
        <ele>678.5</ele>
        <time>2014-05-31T09:33:54Z</time>
      </trkpt>
      <trkpt lat="44.6077" lon="2.46116">
        <ele>678.1</ele>
        <time>2014-05-31T09:34:02Z</time>
      </trkpt>
      <trkpt lat="44.6078" lon="2.46115">
        <ele>678</ele>
        <time>2014-05-31T09:34:15Z</time>
      </trkpt>
      <trkpt lat="44.60799" lon="2.46107">
        <ele>678.5</ele>
        <time>2014-05-31T09:34:36Z</time>
      </trkpt>
      <trkpt lat="44.60815" lon="2.46102">
        <ele>678.5</ele>
        <time>2014-05-31T09:34:51Z</time>
      </trkpt>
      <trkpt lat="44.60829" lon="2.46097">
        <ele>677.2</ele>
        <time>2014-05-31T09:35:04Z</time>
      </trkpt>
      <trkpt lat="44.6085" lon="2.46087">
        <ele>679.1</ele>
        <time>2014-05-31T09:35:24Z</time>
      </trkpt>
      <trkpt lat="44.60869" lon="2.46077">
        <ele>679.4</ele>
        <time>2014-05-31T09:35:42Z</time>
      </trkpt>
      <trkpt lat="44.60884" lon="2.4607">
        <ele>678.6</ele>
        <time>2014-05-31T09:35:57Z</time>
      </trkpt>
      <trkpt lat="44.609" lon="2.4606">
        <ele>677.5</ele>
        <time>2014-05-31T09:36:14Z</time>
      </trkpt>
      <trkpt lat="44.60921" lon="2.4605">
        <ele>678.9</ele>
        <time>2014-05-31T09:36:32Z</time>
      </trkpt>
      <trkpt lat="44.60933" lon="2.46045">
        <ele>679</ele>
        <time>2014-05-31T09:36:43Z</time>
      </trkpt>
      <trkpt lat="44.60948" lon="2.46039">
        <ele>679.2</ele>
        <time>2014-05-31T09:36:57Z</time>
      </trkpt>
      <trkpt lat="44.60958" lon="2.46035">
        <ele>678.8</ele>
        <time>2014-05-31T09:37:06Z</time>
      </trkpt>
      <trkpt lat="44.60969" lon="2.46031">
        <ele>677.9</ele>
        <time>2014-05-31T09:37:16Z</time>
      </trkpt>
      <trkpt lat="44.60974" lon="2.46029">
        <ele>678.2</ele>
        <time>2014-05-31T09:37:22Z</time>
      </trkpt>
      <trkpt lat="44.60976" lon="2.46026">
        <ele>679.4</ele>
        <time>2014-05-31T09:37:34Z</time>
      </trkpt>
      <trkpt lat="44.60992" lon="2.46022">
        <ele>678.8</ele>
        <time>2014-05-31T09:37:49Z</time>
      </trkpt>
      <trkpt lat="44.61012" lon="2.46016">
        <ele>677.3</ele>
        <time>2014-05-31T09:38:07Z</time>
      </trkpt>
      <trkpt lat="44.61031" lon="2.46011">
        <ele>676.3</ele>
        <time>2014-05-31T09:38:23Z</time>
      </trkpt>
      <trkpt lat="44.61047" lon="2.46005">
        <ele>675.5</ele>
        <time>2014-05-31T09:38:38Z</time>
      </trkpt>
      <trkpt lat="44.61067" lon="2.45998">
        <ele>675.4</ele>
        <time>2014-05-31T09:38:55Z</time>
      </trkpt>
      <trkpt lat="44.61084" lon="2.45989">
        <ele>678.2</ele>
        <time>2014-05-31T09:39:12Z</time>
      </trkpt>
      <trkpt lat="44.61097" lon="2.45977">
        <ele>677.4</ele>
        <time>2014-05-31T09:39:29Z</time>
      </trkpt>
      <trkpt lat="44.611" lon="2.45951">
        <ele>675</ele>
        <time>2014-05-31T09:39:46Z</time>
      </trkpt>
      <trkpt lat="44.61105" lon="2.45936">
        <ele>672.8</ele>
        <time>2014-05-31T09:40:01Z</time>
      </trkpt>
      <trkpt lat="44.61112" lon="2.45916">
        <ele>674.1</ele>
        <time>2014-05-31T09:40:16Z</time>
      </trkpt>
      <trkpt lat="44.6112" lon="2.45896">
        <ele>674.7</ele>
        <time>2014-05-31T09:40:32Z</time>
      </trkpt>
      <trkpt lat="44.61128" lon="2.45872">
        <ele>675.1</ele>
        <time>2014-05-31T09:40:48Z</time>
      </trkpt>
      <trkpt lat="44.61136" lon="2.45845">
        <ele>675.5</ele>
        <time>2014-05-31T09:41:06Z</time>
      </trkpt>
      <trkpt lat="44.61144" lon="2.45822">
        <ele>677.5</ele>
        <time>2014-05-31T09:41:21Z</time>
      </trkpt>
      <trkpt lat="44.61152" lon="2.45794">
        <ele>677.2</ele>
        <time>2014-05-31T09:41:39Z</time>
      </trkpt>
      <trkpt lat="44.61156" lon="2.45774">
        <ele>679.4</ele>
        <time>2014-05-31T09:41:50Z</time>
      </trkpt>
      <trkpt lat="44.61161" lon="2.45759">
        <ele>680.5</ele>
        <time>2014-05-31T09:42:00Z</time>
      </trkpt>
      <trkpt lat="44.61167" lon="2.45741">
        <ele>678.4</ele>
        <time>2014-05-31T09:42:12Z</time>
      </trkpt>
      <trkpt lat="44.61175" lon="2.45728">
        <ele>679.9</ele>
        <time>2014-05-31T09:42:23Z</time>
      </trkpt>
      <trkpt lat="44.61189" lon="2.45703">
        <ele>680.1</ele>
        <time>2014-05-31T09:42:40Z</time>
      </trkpt>
      <trkpt lat="44.61189" lon="2.45703">
        <ele>680.1</ele>
        <time>2014-05-31T09:42:48Z</time>
      </trkpt>
      <trkpt lat="44.61203" lon="2.4569">
        <ele>672.9</ele>
        <time>2014-05-31T09:42:59Z</time>
      </trkpt>
      <trkpt lat="44.61219" lon="2.4567">
        <ele>668.3</ele>
        <time>2014-05-31T09:43:18Z</time>
      </trkpt>
      <trkpt lat="44.61231" lon="2.45655">
        <ele>667.4</ele>
        <time>2014-05-31T09:43:32Z</time>
      </trkpt>
      <trkpt lat="44.61243" lon="2.45645">
        <ele>669</ele>
        <time>2014-05-31T09:43:45Z</time>
      </trkpt>
      <trkpt lat="44.61257" lon="2.45631">
        <ele>667.1</ele>
        <time>2014-05-31T09:43:59Z</time>
      </trkpt>
      <trkpt lat="44.61262" lon="2.4562">
        <ele>666.2</ele>
        <time>2014-05-31T09:44:07Z</time>
      </trkpt>
      <trkpt lat="44.61275" lon="2.45598">
        <ele>665.7</ele>
        <time>2014-05-31T09:44:24Z</time>
      </trkpt>
      <trkpt lat="44.61288" lon="2.45568">
        <ele>663.3</ele>
        <time>2014-05-31T09:44:45Z</time>
      </trkpt>
      <trkpt lat="44.61295" lon="2.45542">
        <ele>662</ele>
        <time>2014-05-31T09:45:01Z</time>
      </trkpt>
      <trkpt lat="44.61299" lon="2.45521">
        <ele>661.5</ele>
        <time>2014-05-31T09:45:15Z</time>
      </trkpt>
      <trkpt lat="44.61292" lon="2.45494">
        <ele>661.5</ele>
        <time>2014-05-31T09:45:33Z</time>
      </trkpt>
      <trkpt lat="44.61284" lon="2.45475">
        <ele>662.8</ele>
        <time>2014-05-31T09:45:44Z</time>
      </trkpt>
      <trkpt lat="44.61275" lon="2.45464">
        <ele>662</ele>
        <time>2014-05-31T09:45:53Z</time>
      </trkpt>
      <trkpt lat="44.61268" lon="2.45451">
        <ele>661</ele>
        <time>2014-05-31T09:46:04Z</time>
      </trkpt>
      <trkpt lat="44.61258" lon="2.45424">
        <ele>660.9</ele>
        <time>2014-05-31T09:46:21Z</time>
      </trkpt>
      <trkpt lat="44.61251" lon="2.45408">
        <ele>664.8</ele>
        <time>2014-05-31T09:46:33Z</time>
      </trkpt>
      <trkpt lat="44.61245" lon="2.4539">
        <ele>661.6</ele>
        <time>2014-05-31T09:46:46Z</time>
      </trkpt>
      <trkpt lat="44.61236" lon="2.45367">
        <ele>659.2</ele>
        <time>2014-05-31T09:47:01Z</time>
      </trkpt>
      <trkpt lat="44.61228" lon="2.45351">
        <ele>659.6</ele>
        <time>2014-05-31T09:47:14Z</time>
      </trkpt>
      <trkpt lat="44.61215" lon="2.45331">
        <ele>660</ele>
        <time>2014-05-31T09:47:30Z</time>
      </trkpt>
      <trkpt lat="44.61203" lon="2.45316">
        <ele>661</ele>
        <time>2014-05-31T09:47:44Z</time>
      </trkpt>
      <trkpt lat="44.61187" lon="2.45297">
        <ele>664.9</ele>
        <time>2014-05-31T09:48:02Z</time>
      </trkpt>
      <trkpt lat="44.6117" lon="2.45278">
        <ele>666.8</ele>
        <time>2014-05-31T09:48:20Z</time>
      </trkpt>
      <trkpt lat="44.61148" lon="2.45243">
        <ele>666.3</ele>
        <time>2014-05-31T09:48:43Z</time>
      </trkpt>
      <trkpt lat="44.61138" lon="2.45234">
        <ele>665.6</ele>
        <time>2014-05-31T09:48:55Z</time>
      </trkpt>
      <trkpt lat="44.61127" lon="2.4523">
        <ele>661.9</ele>
        <time>2014-05-31T09:49:09Z</time>
      </trkpt>
      <trkpt lat="44.61117" lon="2.45217">
        <ele>662.2</ele>
        <time>2014-05-31T09:49:18Z</time>
      </trkpt>
      <trkpt lat="44.61104" lon="2.45198">
        <ele>661.4</ele>
        <time>2014-05-31T09:49:35Z</time>
      </trkpt>
      <trkpt lat="44.61095" lon="2.45184">
        <ele>660.6</ele>
        <time>2014-05-31T09:49:45Z</time>
      </trkpt>
      <trkpt lat="44.61085" lon="2.45159">
        <ele>660.3</ele>
        <time>2014-05-31T09:50:02Z</time>
      </trkpt>
      <trkpt lat="44.61077" lon="2.45138">
        <ele>661.9</ele>
        <time>2014-05-31T09:50:15Z</time>
      </trkpt>
      <trkpt lat="44.6107" lon="2.45119">
        <ele>663</ele>
        <time>2014-05-31T09:50:28Z</time>
      </trkpt>
      <trkpt lat="44.61061" lon="2.45098">
        <ele>664.3</ele>
        <time>2014-05-31T09:50:43Z</time>
      </trkpt>
      <trkpt lat="44.61053" lon="2.45077">
        <ele>664.9</ele>
        <time>2014-05-31T09:50:58Z</time>
      </trkpt>
      <trkpt lat="44.61047" lon="2.4506">
        <ele>664.5</ele>
        <time>2014-05-31T09:51:10Z</time>
      </trkpt>
      <trkpt lat="44.61041" lon="2.45032">
        <ele>664.4</ele>
        <time>2014-05-31T09:51:27Z</time>
      </trkpt>
      <trkpt lat="44.61038" lon="2.45011">
        <ele>662.1</ele>
        <time>2014-05-31T09:51:40Z</time>
      </trkpt>
      <trkpt lat="44.61032" lon="2.44995">
        <ele>661.2</ele>
        <time>2014-05-31T09:51:50Z</time>
      </trkpt>
      <trkpt lat="44.61023" lon="2.44977">
        <ele>664.7</ele>
        <time>2014-05-31T09:52:02Z</time>
      </trkpt>
      <trkpt lat="44.61015" lon="2.44956">
        <ele>663.8</ele>
        <time>2014-05-31T09:52:18Z</time>
      </trkpt>
      <trkpt lat="44.60997" lon="2.44938">
        <ele>664.6</ele>
        <time>2014-05-31T09:52:35Z</time>
      </trkpt>
      <trkpt lat="44.60979" lon="2.44924">
        <ele>666.8</ele>
        <time>2014-05-31T09:52:52Z</time>
      </trkpt>
      <trkpt lat="44.60958" lon="2.4491">
        <ele>669.5</ele>
        <time>2014-05-31T09:53:10Z</time>
      </trkpt>
      <trkpt lat="44.60942" lon="2.44898">
        <ele>666.5</ele>
        <time>2014-05-31T09:53:26Z</time>
      </trkpt>
      <trkpt lat="44.60926" lon="2.44877">
        <ele>665.5</ele>
        <time>2014-05-31T09:53:45Z</time>
      </trkpt>
      <trkpt lat="44.60916" lon="2.44855">
        <ele>659.9</ele>
        <time>2014-05-31T09:54:02Z</time>
      </trkpt>
      <trkpt lat="44.609" lon="2.44853">
        <ele>653.6</ele>
        <time>2014-05-31T09:54:22Z</time>
      </trkpt>
      <trkpt lat="44.6088" lon="2.44845">
        <ele>656.3</ele>
        <time>2014-05-31T09:54:40Z</time>
      </trkpt>
      <trkpt lat="44.60866" lon="2.4484">
        <ele>655</ele>
        <time>2014-05-31T09:54:55Z</time>
      </trkpt>
      <trkpt lat="44.60861" lon="2.44837">
        <ele>654.1</ele>
        <time>2014-05-31T09:55:03Z</time>
      </trkpt>
      <trkpt lat="44.60858" lon="2.44838">
        <ele>654.2</ele>
        <time>2014-05-31T09:55:11Z</time>
      </trkpt>
      <trkpt lat="44.60844" lon="2.4483">
        <ele>656.8</ele>
        <time>2014-05-31T09:57:17Z</time>
      </trkpt>
      <trkpt lat="44.60844" lon="2.4483">
        <ele>656.8</ele>
        <time>2014-05-31T09:57:24Z</time>
      </trkpt>
      <trkpt lat="44.60844" lon="2.4483">
        <ele>656.8</ele>
        <time>2014-05-31T09:57:25Z</time>
      </trkpt>
      <trkpt lat="44.60844" lon="2.4483">
        <ele>601</ele>
        <time>2014-05-31T09:57:46Z</time>
      </trkpt>
      <trkpt lat="44.60844" lon="2.4483">
        <ele>601</ele>
        <time>2014-05-31T09:57:48Z</time>
      </trkpt>
    </trkseg>
  </trk>
</gpx>